<?xml version="1.0" encoding="UTF-8" standalone="no" ?>
<gpx xmlns="http://www.topografix.com/GPX/1/1" xmlns:xsi="http://www.w3.org/2001/XMLSchema-instance" xsi:schemaLocation="http://www.topografix.com/GPX/1/1 http://www.topografix.com/GPX/1/1/gpx.xsd" version="1.1" creator="VisuGPX - https://www.visugpx.com">
  <metadata>
    <name>Boucle de 12 km autour du Perray-en-Yvelines (78)</name>
    <desc><![CDATA[Le Perray En Yvelines]]></desc>
  </metadata>
  <trk>
    <name><![CDATA[Randonn&eacute;e]]></name>
    <trkseg>
      <trkpt lat="48.69257" lon="1.85662">
        <ele>182.2</ele>
        <time>2013-03-31T09:00:00.000+02:00</time>
      </trkpt>
      <trkpt lat="48.69262" lon="1.85663">
        <ele>179.8</ele>
        <time>2013-03-31T09:00:31.000+02:00</time>
      </trkpt>
      <trkpt lat="48.69265" lon="1.85661">
        <ele>177.5</ele>
        <time>2013-03-31T09:00:54.000+02:00</time>
      </trkpt>
      <trkpt lat="48.69274" lon="1.85666">
        <ele>177.3</ele>
        <time>2013-03-31T09:01:06.000+02:00</time>
      </trkpt>
      <trkpt lat="48.69284" lon="1.85669">
        <ele>177.8</ele>
        <time>2013-03-31T09:01:14.000+02:00</time>
      </trkpt>
      <trkpt lat="48.69293" lon="1.85672">
        <ele>177.5</ele>
        <time>2013-03-31T09:01:23.000+02:00</time>
      </trkpt>
      <trkpt lat="48.69302" lon="1.85674">
        <ele>177.8</ele>
        <time>2013-03-31T09:01:31.000+02:00</time>
      </trkpt>
      <trkpt lat="48.69311" lon="1.85675">
        <ele>177.5</ele>
        <time>2013-03-31T09:01:39.000+02:00</time>
      </trkpt>
      <trkpt lat="48.69319" lon="1.85675">
        <ele>178.2</ele>
        <time>2013-03-31T09:01:50.000+02:00</time>
      </trkpt>
      <trkpt lat="48.69328" lon="1.85677">
        <ele>176.4</ele>
        <time>2013-03-31T09:02:06.000+02:00</time>
      </trkpt>
      <trkpt lat="48.69337" lon="1.85643">
        <ele>172.8</ele>
        <time>2013-03-31T09:02:34.000+02:00</time>
      </trkpt>
      <trkpt lat="48.6933" lon="1.85638">
        <ele>177.6</ele>
        <time>2013-03-31T09:02:47.000+02:00</time>
      </trkpt>
      <trkpt lat="48.69329" lon="1.85629">
        <ele>172.1</ele>
        <time>2013-03-31T09:02:56.000+02:00</time>
      </trkpt>
      <trkpt lat="48.69329" lon="1.85615">
        <ele>171.9</ele>
        <time>2013-03-31T09:03:03.000+02:00</time>
      </trkpt>
      <trkpt lat="48.69326" lon="1.85609">
        <ele>173.9</ele>
        <time>2013-03-31T09:03:32.000+02:00</time>
      </trkpt>
      <trkpt lat="48.69322" lon="1.856">
        <ele>170.3</ele>
        <time>2013-03-31T09:04:17.000+02:00</time>
      </trkpt>
      <trkpt lat="48.69314" lon="1.85594">
        <ele>170.8</ele>
        <time>2013-03-31T09:04:25.000+02:00</time>
      </trkpt>
      <trkpt lat="48.69305" lon="1.85587">
        <ele>171.4</ele>
        <time>2013-03-31T09:04:34.000+02:00</time>
      </trkpt>
      <trkpt lat="48.69295" lon="1.85583">
        <ele>171</ele>
        <time>2013-03-31T09:04:42.000+02:00</time>
      </trkpt>
      <trkpt lat="48.69286" lon="1.85581">
        <ele>171</ele>
        <time>2013-03-31T09:04:50.000+02:00</time>
      </trkpt>
      <trkpt lat="48.69277" lon="1.85577">
        <ele>170.5</ele>
        <time>2013-03-31T09:04:59.000+02:00</time>
      </trkpt>
      <trkpt lat="48.69268" lon="1.85573">
        <ele>173.1</ele>
        <time>2013-03-31T09:05:06.000+02:00</time>
      </trkpt>
      <trkpt lat="48.69259" lon="1.8557">
        <ele>172.7</ele>
        <time>2013-03-31T09:05:14.000+02:00</time>
      </trkpt>
      <trkpt lat="48.6925" lon="1.85568">
        <ele>174</ele>
        <time>2013-03-31T09:05:21.000+02:00</time>
      </trkpt>
      <trkpt lat="48.69241" lon="1.85569">
        <ele>177.1</ele>
        <time>2013-03-31T09:05:28.000+02:00</time>
      </trkpt>
      <trkpt lat="48.69232" lon="1.85572">
        <ele>174.1</ele>
        <time>2013-03-31T09:05:36.000+02:00</time>
      </trkpt>
      <trkpt lat="48.69222" lon="1.85569">
        <ele>173.3</ele>
        <time>2013-03-31T09:05:43.000+02:00</time>
      </trkpt>
      <trkpt lat="48.69214" lon="1.85564">
        <ele>172.7</ele>
        <time>2013-03-31T09:05:50.000+02:00</time>
      </trkpt>
      <trkpt lat="48.69206" lon="1.85557">
        <ele>173.4</ele>
        <time>2013-03-31T09:05:58.000+02:00</time>
      </trkpt>
      <trkpt lat="48.69197" lon="1.85556">
        <ele>175.5</ele>
        <time>2013-03-31T09:06:07.000+02:00</time>
      </trkpt>
      <trkpt lat="48.69188" lon="1.85553">
        <ele>178.4</ele>
        <time>2013-03-31T09:06:23.000+02:00</time>
      </trkpt>
      <trkpt lat="48.6918" lon="1.85547">
        <ele>177.4</ele>
        <time>2013-03-31T09:06:31.000+02:00</time>
      </trkpt>
      <trkpt lat="48.6917" lon="1.85544">
        <ele>175</ele>
        <time>2013-03-31T09:06:39.000+02:00</time>
      </trkpt>
      <trkpt lat="48.69161" lon="1.85542">
        <ele>174.6</ele>
        <time>2013-03-31T09:06:47.000+02:00</time>
      </trkpt>
      <trkpt lat="48.69154" lon="1.85532">
        <ele>174.5</ele>
        <time>2013-03-31T09:06:54.000+02:00</time>
      </trkpt>
      <trkpt lat="48.69147" lon="1.85524">
        <ele>174</ele>
        <time>2013-03-31T09:07:01.000+02:00</time>
      </trkpt>
      <trkpt lat="48.69138" lon="1.85518">
        <ele>172.2</ele>
        <time>2013-03-31T09:07:08.000+02:00</time>
      </trkpt>
      <trkpt lat="48.6913" lon="1.85512">
        <ele>173</ele>
        <time>2013-03-31T09:07:15.000+02:00</time>
      </trkpt>
      <trkpt lat="48.6912" lon="1.85505">
        <ele>173.7</ele>
        <time>2013-03-31T09:07:22.000+02:00</time>
      </trkpt>
      <trkpt lat="48.69112" lon="1.85499">
        <ele>173.1</ele>
        <time>2013-03-31T09:07:28.000+02:00</time>
      </trkpt>
      <trkpt lat="48.69104" lon="1.85491">
        <ele>172.7</ele>
        <time>2013-03-31T09:07:34.000+02:00</time>
      </trkpt>
      <trkpt lat="48.69095" lon="1.85485">
        <ele>172.9</ele>
        <time>2013-03-31T09:07:41.000+02:00</time>
      </trkpt>
      <trkpt lat="48.69088" lon="1.85476">
        <ele>174.3</ele>
        <time>2013-03-31T09:07:48.000+02:00</time>
      </trkpt>
      <trkpt lat="48.69084" lon="1.85463">
        <ele>173.8</ele>
        <time>2013-03-31T09:07:54.000+02:00</time>
      </trkpt>
      <trkpt lat="48.6908" lon="1.8545">
        <ele>173.3</ele>
        <time>2013-03-31T09:08:00.000+02:00</time>
      </trkpt>
      <trkpt lat="48.69079" lon="1.85436">
        <ele>173.4</ele>
        <time>2013-03-31T09:08:07.000+02:00</time>
      </trkpt>
      <trkpt lat="48.69078" lon="1.85421">
        <ele>172.7</ele>
        <time>2013-03-31T09:08:14.000+02:00</time>
      </trkpt>
      <trkpt lat="48.69076" lon="1.85407">
        <ele>173.2</ele>
        <time>2013-03-31T09:08:22.000+02:00</time>
      </trkpt>
      <trkpt lat="48.69074" lon="1.85394">
        <ele>174.2</ele>
        <time>2013-03-31T09:08:37.000+02:00</time>
      </trkpt>
      <trkpt lat="48.69072" lon="1.8538">
        <ele>176.3</ele>
        <time>2013-03-31T09:08:46.000+02:00</time>
      </trkpt>
      <trkpt lat="48.69069" lon="1.85366">
        <ele>177.5</ele>
        <time>2013-03-31T09:08:54.000+02:00</time>
      </trkpt>
      <trkpt lat="48.69065" lon="1.85352">
        <ele>178.8</ele>
        <time>2013-03-31T09:09:02.000+02:00</time>
      </trkpt>
      <trkpt lat="48.69064" lon="1.85339">
        <ele>179</ele>
        <time>2013-03-31T09:09:09.000+02:00</time>
      </trkpt>
      <trkpt lat="48.69065" lon="1.85324">
        <ele>178</ele>
        <time>2013-03-31T09:09:16.000+02:00</time>
      </trkpt>
      <trkpt lat="48.69067" lon="1.8531">
        <ele>176.9</ele>
        <time>2013-03-31T09:09:23.000+02:00</time>
      </trkpt>
      <trkpt lat="48.69069" lon="1.85296">
        <ele>175.4</ele>
        <time>2013-03-31T09:09:32.000+02:00</time>
      </trkpt>
      <trkpt lat="48.69072" lon="1.85282">
        <ele>174.7</ele>
        <time>2013-03-31T09:09:39.000+02:00</time>
      </trkpt>
      <trkpt lat="48.69075" lon="1.85269">
        <ele>173.3</ele>
        <time>2013-03-31T09:09:47.000+02:00</time>
      </trkpt>
      <trkpt lat="48.69074" lon="1.85261">
        <ele>170.8</ele>
        <time>2013-03-31T09:10:19.000+02:00</time>
      </trkpt>
      <trkpt lat="48.6907" lon="1.85252">
        <ele>169.1</ele>
        <time>2013-03-31T09:10:57.000+02:00</time>
      </trkpt>
      <trkpt lat="48.69065" lon="1.8525">
        <ele>170.2</ele>
        <time>2013-03-31T09:11:15.000+02:00</time>
      </trkpt>
      <trkpt lat="48.69061" lon="1.85263">
        <ele>172.1</ele>
        <time>2013-03-31T09:11:24.000+02:00</time>
      </trkpt>
      <trkpt lat="48.69055" lon="1.85275">
        <ele>173.4</ele>
        <time>2013-03-31T09:11:32.000+02:00</time>
      </trkpt>
      <trkpt lat="48.69047" lon="1.85284">
        <ele>173.8</ele>
        <time>2013-03-31T09:11:40.000+02:00</time>
      </trkpt>
      <trkpt lat="48.6904" lon="1.85291">
        <ele>173.3</ele>
        <time>2013-03-31T09:11:48.000+02:00</time>
      </trkpt>
      <trkpt lat="48.6903" lon="1.85293">
        <ele>172.2</ele>
        <time>2013-03-31T09:11:55.000+02:00</time>
      </trkpt>
      <trkpt lat="48.6902" lon="1.85294">
        <ele>171.7</ele>
        <time>2013-03-31T09:12:02.000+02:00</time>
      </trkpt>
      <trkpt lat="48.6901" lon="1.85294">
        <ele>173.3</ele>
        <time>2013-03-31T09:12:10.000+02:00</time>
      </trkpt>
      <trkpt lat="48.69" lon="1.85293">
        <ele>175.6</ele>
        <time>2013-03-31T09:12:17.000+02:00</time>
      </trkpt>
      <trkpt lat="48.68991" lon="1.85293">
        <ele>177.2</ele>
        <time>2013-03-31T09:12:24.000+02:00</time>
      </trkpt>
      <trkpt lat="48.68981" lon="1.85294">
        <ele>175.8</ele>
        <time>2013-03-31T09:12:32.000+02:00</time>
      </trkpt>
      <trkpt lat="48.68971" lon="1.85296">
        <ele>174.3</ele>
        <time>2013-03-31T09:12:39.000+02:00</time>
      </trkpt>
      <trkpt lat="48.68962" lon="1.85296">
        <ele>173.4</ele>
        <time>2013-03-31T09:12:46.000+02:00</time>
      </trkpt>
      <trkpt lat="48.68953" lon="1.85296">
        <ele>173.3</ele>
        <time>2013-03-31T09:12:53.000+02:00</time>
      </trkpt>
      <trkpt lat="48.68944" lon="1.85297">
        <ele>174</ele>
        <time>2013-03-31T09:13:00.000+02:00</time>
      </trkpt>
      <trkpt lat="48.68933" lon="1.85297">
        <ele>174.6</ele>
        <time>2013-03-31T09:13:07.000+02:00</time>
      </trkpt>
      <trkpt lat="48.68924" lon="1.85298">
        <ele>174.5</ele>
        <time>2013-03-31T09:13:14.000+02:00</time>
      </trkpt>
      <trkpt lat="48.68914" lon="1.85298">
        <ele>173.3</ele>
        <time>2013-03-31T09:13:21.000+02:00</time>
      </trkpt>
      <trkpt lat="48.68905" lon="1.85297">
        <ele>173.5</ele>
        <time>2013-03-31T09:13:29.000+02:00</time>
      </trkpt>
      <trkpt lat="48.68896" lon="1.85296">
        <ele>171.2</ele>
        <time>2013-03-31T09:13:42.000+02:00</time>
      </trkpt>
      <trkpt lat="48.68892" lon="1.85298">
        <ele>170.2</ele>
        <time>2013-03-31T09:14:12.000+02:00</time>
      </trkpt>
      <trkpt lat="48.68881" lon="1.85297">
        <ele>170.6</ele>
        <time>2013-03-31T09:14:20.000+02:00</time>
      </trkpt>
      <trkpt lat="48.68872" lon="1.85293">
        <ele>170.5</ele>
        <time>2013-03-31T09:14:28.000+02:00</time>
      </trkpt>
      <trkpt lat="48.68863" lon="1.85289">
        <ele>170.6</ele>
        <time>2013-03-31T09:14:36.000+02:00</time>
      </trkpt>
      <trkpt lat="48.68854" lon="1.85284">
        <ele>169.6</ele>
        <time>2013-03-31T09:14:43.000+02:00</time>
      </trkpt>
      <trkpt lat="48.68846" lon="1.85279">
        <ele>170</ele>
        <time>2013-03-31T09:14:50.000+02:00</time>
      </trkpt>
      <trkpt lat="48.68836" lon="1.85278">
        <ele>170.7</ele>
        <time>2013-03-31T09:14:57.000+02:00</time>
      </trkpt>
      <trkpt lat="48.68827" lon="1.85278">
        <ele>171.7</ele>
        <time>2013-03-31T09:15:04.000+02:00</time>
      </trkpt>
      <trkpt lat="48.68817" lon="1.85277">
        <ele>172.3</ele>
        <time>2013-03-31T09:15:12.000+02:00</time>
      </trkpt>
      <trkpt lat="48.68807" lon="1.85278">
        <ele>172.5</ele>
        <time>2013-03-31T09:15:19.000+02:00</time>
      </trkpt>
      <trkpt lat="48.68798" lon="1.85277">
        <ele>172.6</ele>
        <time>2013-03-31T09:15:26.000+02:00</time>
      </trkpt>
      <trkpt lat="48.68789" lon="1.85278">
        <ele>172.8</ele>
        <time>2013-03-31T09:15:32.000+02:00</time>
      </trkpt>
      <trkpt lat="48.68779" lon="1.85278">
        <ele>173.5</ele>
        <time>2013-03-31T09:15:39.000+02:00</time>
      </trkpt>
      <trkpt lat="48.68769" lon="1.85277">
        <ele>173.9</ele>
        <time>2013-03-31T09:15:46.000+02:00</time>
      </trkpt>
      <trkpt lat="48.68759" lon="1.85277">
        <ele>174.4</ele>
        <time>2013-03-31T09:15:53.000+02:00</time>
      </trkpt>
      <trkpt lat="48.68749" lon="1.85277">
        <ele>173.8</ele>
        <time>2013-03-31T09:15:59.000+02:00</time>
      </trkpt>
      <trkpt lat="48.68739" lon="1.85276">
        <ele>173.4</ele>
        <time>2013-03-31T09:16:06.000+02:00</time>
      </trkpt>
      <trkpt lat="48.68731" lon="1.85269">
        <ele>173.1</ele>
        <time>2013-03-31T09:16:13.000+02:00</time>
      </trkpt>
      <trkpt lat="48.68724" lon="1.85259">
        <ele>172.7</ele>
        <time>2013-03-31T09:16:20.000+02:00</time>
      </trkpt>
      <trkpt lat="48.68718" lon="1.85249">
        <ele>172.5</ele>
        <time>2013-03-31T09:16:27.000+02:00</time>
      </trkpt>
      <trkpt lat="48.68711" lon="1.85239">
        <ele>173</ele>
        <time>2013-03-31T09:16:34.000+02:00</time>
      </trkpt>
      <trkpt lat="48.68706" lon="1.85227">
        <ele>173.5</ele>
        <time>2013-03-31T09:16:41.000+02:00</time>
      </trkpt>
      <trkpt lat="48.687" lon="1.85215">
        <ele>174.6</ele>
        <time>2013-03-31T09:16:48.000+02:00</time>
      </trkpt>
      <trkpt lat="48.68692" lon="1.85205">
        <ele>175.9</ele>
        <time>2013-03-31T09:16:56.000+02:00</time>
      </trkpt>
      <trkpt lat="48.68687" lon="1.85194">
        <ele>176.5</ele>
        <time>2013-03-31T09:17:02.000+02:00</time>
      </trkpt>
      <trkpt lat="48.68682" lon="1.85181">
        <ele>176.3</ele>
        <time>2013-03-31T09:17:08.000+02:00</time>
      </trkpt>
      <trkpt lat="48.68677" lon="1.85169">
        <ele>176.9</ele>
        <time>2013-03-31T09:17:15.000+02:00</time>
      </trkpt>
      <trkpt lat="48.68672" lon="1.85157">
        <ele>176.5</ele>
        <time>2013-03-31T09:17:21.000+02:00</time>
      </trkpt>
      <trkpt lat="48.68666" lon="1.85145">
        <ele>175.4</ele>
        <time>2013-03-31T09:17:28.000+02:00</time>
      </trkpt>
      <trkpt lat="48.6866" lon="1.85134">
        <ele>175.5</ele>
        <time>2013-03-31T09:17:35.000+02:00</time>
      </trkpt>
      <trkpt lat="48.68651" lon="1.85126">
        <ele>175.2</ele>
        <time>2013-03-31T09:17:42.000+02:00</time>
      </trkpt>
      <trkpt lat="48.68643" lon="1.85118">
        <ele>175.5</ele>
        <time>2013-03-31T09:17:49.000+02:00</time>
      </trkpt>
      <trkpt lat="48.68634" lon="1.8511">
        <ele>174.1</ele>
        <time>2013-03-31T09:17:56.000+02:00</time>
      </trkpt>
      <trkpt lat="48.68625" lon="1.85106">
        <ele>174.2</ele>
        <time>2013-03-31T09:18:03.000+02:00</time>
      </trkpt>
      <trkpt lat="48.68616" lon="1.85102">
        <ele>175.6</ele>
        <time>2013-03-31T09:18:11.000+02:00</time>
      </trkpt>
      <trkpt lat="48.68607" lon="1.85101">
        <ele>178.4</ele>
        <time>2013-03-31T09:18:18.000+02:00</time>
      </trkpt>
      <trkpt lat="48.68598" lon="1.85094">
        <ele>178.8</ele>
        <time>2013-03-31T09:18:25.000+02:00</time>
      </trkpt>
      <trkpt lat="48.68589" lon="1.85092">
        <ele>178.3</ele>
        <time>2013-03-31T09:18:32.000+02:00</time>
      </trkpt>
      <trkpt lat="48.68579" lon="1.85087">
        <ele>177.9</ele>
        <time>2013-03-31T09:18:39.000+02:00</time>
      </trkpt>
      <trkpt lat="48.68569" lon="1.85084">
        <ele>180.8</ele>
        <time>2013-03-31T09:18:46.000+02:00</time>
      </trkpt>
      <trkpt lat="48.6856" lon="1.85081">
        <ele>181.6</ele>
        <time>2013-03-31T09:18:52.000+02:00</time>
      </trkpt>
      <trkpt lat="48.6855" lon="1.85079">
        <ele>181.8</ele>
        <time>2013-03-31T09:18:59.000+02:00</time>
      </trkpt>
      <trkpt lat="48.68541" lon="1.85077">
        <ele>183.3</ele>
        <time>2013-03-31T09:19:05.000+02:00</time>
      </trkpt>
      <trkpt lat="48.68532" lon="1.85072">
        <ele>184.1</ele>
        <time>2013-03-31T09:19:12.000+02:00</time>
      </trkpt>
      <trkpt lat="48.68523" lon="1.8507">
        <ele>182.9</ele>
        <time>2013-03-31T09:19:17.000+02:00</time>
      </trkpt>
      <trkpt lat="48.68514" lon="1.85068">
        <ele>182.1</ele>
        <time>2013-03-31T09:19:23.000+02:00</time>
      </trkpt>
      <trkpt lat="48.68504" lon="1.85062">
        <ele>181.2</ele>
        <time>2013-03-31T09:19:30.000+02:00</time>
      </trkpt>
      <trkpt lat="48.68495" lon="1.85057">
        <ele>179.8</ele>
        <time>2013-03-31T09:19:36.000+02:00</time>
      </trkpt>
      <trkpt lat="48.68485" lon="1.85054">
        <ele>177.8</ele>
        <time>2013-03-31T09:19:43.000+02:00</time>
      </trkpt>
      <trkpt lat="48.68476" lon="1.85051">
        <ele>179.3</ele>
        <time>2013-03-31T09:19:50.000+02:00</time>
      </trkpt>
      <trkpt lat="48.68467" lon="1.85046">
        <ele>179.2</ele>
        <time>2013-03-31T09:19:56.000+02:00</time>
      </trkpt>
      <trkpt lat="48.68458" lon="1.8504">
        <ele>176</ele>
        <time>2013-03-31T09:20:03.000+02:00</time>
      </trkpt>
      <trkpt lat="48.68449" lon="1.85035">
        <ele>174</ele>
        <time>2013-03-31T09:20:10.000+02:00</time>
      </trkpt>
      <trkpt lat="48.68444" lon="1.85034">
        <ele>170.6</ele>
        <time>2013-03-31T09:20:36.000+02:00</time>
      </trkpt>
      <trkpt lat="48.68438" lon="1.85042">
        <ele>172.7</ele>
        <time>2013-03-31T09:20:45.000+02:00</time>
      </trkpt>
      <trkpt lat="48.68434" lon="1.85055">
        <ele>175.4</ele>
        <time>2013-03-31T09:20:53.000+02:00</time>
      </trkpt>
      <trkpt lat="48.68429" lon="1.85068">
        <ele>176.8</ele>
        <time>2013-03-31T09:21:01.000+02:00</time>
      </trkpt>
      <trkpt lat="48.68426" lon="1.85082">
        <ele>175.8</ele>
        <time>2013-03-31T09:21:09.000+02:00</time>
      </trkpt>
      <trkpt lat="48.68422" lon="1.85095">
        <ele>175.7</ele>
        <time>2013-03-31T09:21:16.000+02:00</time>
      </trkpt>
      <trkpt lat="48.6842" lon="1.85108">
        <ele>176.7</ele>
        <time>2013-03-31T09:21:23.000+02:00</time>
      </trkpt>
      <trkpt lat="48.68417" lon="1.85123">
        <ele>178.7</ele>
        <time>2013-03-31T09:21:31.000+02:00</time>
      </trkpt>
      <trkpt lat="48.68414" lon="1.85137">
        <ele>179.1</ele>
        <time>2013-03-31T09:21:39.000+02:00</time>
      </trkpt>
      <trkpt lat="48.68413" lon="1.85148">
        <ele>172.9</ele>
        <time>2013-03-31T09:21:56.000+02:00</time>
      </trkpt>
      <trkpt lat="48.68414" lon="1.85151">
        <ele>173.6</ele>
        <time>2013-03-31T09:23:02.000+02:00</time>
      </trkpt>
      <trkpt lat="48.68404" lon="1.85149">
        <ele>175.1</ele>
        <time>2013-03-31T09:23:13.000+02:00</time>
      </trkpt>
      <trkpt lat="48.68396" lon="1.85144">
        <ele>176.1</ele>
        <time>2013-03-31T09:23:21.000+02:00</time>
      </trkpt>
      <trkpt lat="48.6839" lon="1.85137">
        <ele>174.7</ele>
        <time>2013-03-31T09:23:44.000+02:00</time>
      </trkpt>
      <trkpt lat="48.68389" lon="1.85142">
        <ele>175.4</ele>
        <time>2013-03-31T09:24:32.000+02:00</time>
      </trkpt>
      <trkpt lat="48.6838" lon="1.85135">
        <ele>178.1</ele>
        <time>2013-03-31T09:24:41.000+02:00</time>
      </trkpt>
      <trkpt lat="48.68371" lon="1.85128">
        <ele>180.6</ele>
        <time>2013-03-31T09:24:49.000+02:00</time>
      </trkpt>
      <trkpt lat="48.68364" lon="1.85118">
        <ele>182.2</ele>
        <time>2013-03-31T09:24:58.000+02:00</time>
      </trkpt>
      <trkpt lat="48.68355" lon="1.8511">
        <ele>184.6</ele>
        <time>2013-03-31T09:25:05.000+02:00</time>
      </trkpt>
      <trkpt lat="48.68348" lon="1.851">
        <ele>186.8</ele>
        <time>2013-03-31T09:25:12.000+02:00</time>
      </trkpt>
      <trkpt lat="48.68341" lon="1.85091">
        <ele>185.8</ele>
        <time>2013-03-31T09:25:18.000+02:00</time>
      </trkpt>
      <trkpt lat="48.68333" lon="1.85082">
        <ele>184.9</ele>
        <time>2013-03-31T09:25:24.000+02:00</time>
      </trkpt>
      <trkpt lat="48.68328" lon="1.85071">
        <ele>182</ele>
        <time>2013-03-31T09:25:31.000+02:00</time>
      </trkpt>
      <trkpt lat="48.68319" lon="1.85064">
        <ele>180.3</ele>
        <time>2013-03-31T09:25:38.000+02:00</time>
      </trkpt>
      <trkpt lat="48.68311" lon="1.85057">
        <ele>182.6</ele>
        <time>2013-03-31T09:25:44.000+02:00</time>
      </trkpt>
      <trkpt lat="48.68302" lon="1.8505">
        <ele>188.3</ele>
        <time>2013-03-31T09:25:52.000+02:00</time>
      </trkpt>
      <trkpt lat="48.68293" lon="1.85046">
        <ele>188.5</ele>
        <time>2013-03-31T09:25:58.000+02:00</time>
      </trkpt>
      <trkpt lat="48.68283" lon="1.85041">
        <ele>187.4</ele>
        <time>2013-03-31T09:26:08.000+02:00</time>
      </trkpt>
      <trkpt lat="48.68274" lon="1.85037">
        <ele>185.5</ele>
        <time>2013-03-31T09:26:14.000+02:00</time>
      </trkpt>
      <trkpt lat="48.68265" lon="1.85032">
        <ele>188.2</ele>
        <time>2013-03-31T09:26:22.000+02:00</time>
      </trkpt>
      <trkpt lat="48.68256" lon="1.85027">
        <ele>188.7</ele>
        <time>2013-03-31T09:26:28.000+02:00</time>
      </trkpt>
      <trkpt lat="48.68248" lon="1.85022">
        <ele>189.3</ele>
        <time>2013-03-31T09:26:35.000+02:00</time>
      </trkpt>
      <trkpt lat="48.68239" lon="1.85021">
        <ele>187</ele>
        <time>2013-03-31T09:26:40.000+02:00</time>
      </trkpt>
      <trkpt lat="48.68229" lon="1.85017">
        <ele>187.8</ele>
        <time>2013-03-31T09:26:47.000+02:00</time>
      </trkpt>
      <trkpt lat="48.6822" lon="1.85012">
        <ele>189.6</ele>
        <time>2013-03-31T09:26:55.000+02:00</time>
      </trkpt>
      <trkpt lat="48.68212" lon="1.85006">
        <ele>191.1</ele>
        <time>2013-03-31T09:27:02.000+02:00</time>
      </trkpt>
      <trkpt lat="48.68203" lon="1.85003">
        <ele>188.8</ele>
        <time>2013-03-31T09:27:09.000+02:00</time>
      </trkpt>
      <trkpt lat="48.68194" lon="1.85">
        <ele>188</ele>
        <time>2013-03-31T09:27:14.000+02:00</time>
      </trkpt>
      <trkpt lat="48.68185" lon="1.84994">
        <ele>187</ele>
        <time>2013-03-31T09:27:21.000+02:00</time>
      </trkpt>
      <trkpt lat="48.68176" lon="1.84992">
        <ele>182</ele>
        <time>2013-03-31T09:27:27.000+02:00</time>
      </trkpt>
      <trkpt lat="48.68166" lon="1.84987">
        <ele>178.1</ele>
        <time>2013-03-31T09:27:33.000+02:00</time>
      </trkpt>
      <trkpt lat="48.68157" lon="1.84986">
        <ele>175</ele>
        <time>2013-03-31T09:27:38.000+02:00</time>
      </trkpt>
      <trkpt lat="48.68148" lon="1.84981">
        <ele>178.5</ele>
        <time>2013-03-31T09:27:46.000+02:00</time>
      </trkpt>
      <trkpt lat="48.68139" lon="1.84973">
        <ele>182.1</ele>
        <time>2013-03-31T09:27:53.000+02:00</time>
      </trkpt>
      <trkpt lat="48.6813" lon="1.84966">
        <ele>183.3</ele>
        <time>2013-03-31T09:28:00.000+02:00</time>
      </trkpt>
      <trkpt lat="48.68121" lon="1.84962">
        <ele>185.2</ele>
        <time>2013-03-31T09:28:07.000+02:00</time>
      </trkpt>
      <trkpt lat="48.68111" lon="1.84958">
        <ele>183.2</ele>
        <time>2013-03-31T09:28:12.000+02:00</time>
      </trkpt>
      <trkpt lat="48.68102" lon="1.84953">
        <ele>182.4</ele>
        <time>2013-03-31T09:28:17.000+02:00</time>
      </trkpt>
      <trkpt lat="48.68093" lon="1.84949">
        <ele>180.8</ele>
        <time>2013-03-31T09:28:23.000+02:00</time>
      </trkpt>
      <trkpt lat="48.68083" lon="1.84945">
        <ele>180.3</ele>
        <time>2013-03-31T09:28:29.000+02:00</time>
      </trkpt>
      <trkpt lat="48.68075" lon="1.84942">
        <ele>182</ele>
        <time>2013-03-31T09:28:35.000+02:00</time>
      </trkpt>
      <trkpt lat="48.68065" lon="1.84936">
        <ele>182.6</ele>
        <time>2013-03-31T09:28:41.000+02:00</time>
      </trkpt>
      <trkpt lat="48.68056" lon="1.84935">
        <ele>184.7</ele>
        <time>2013-03-31T09:28:46.000+02:00</time>
      </trkpt>
      <trkpt lat="48.68046" lon="1.84932">
        <ele>182.1</ele>
        <time>2013-03-31T09:28:51.000+02:00</time>
      </trkpt>
      <trkpt lat="48.68039" lon="1.84925">
        <ele>181.9</ele>
        <time>2013-03-31T09:28:57.000+02:00</time>
      </trkpt>
      <trkpt lat="48.68029" lon="1.84921">
        <ele>183</ele>
        <time>2013-03-31T09:29:03.000+02:00</time>
      </trkpt>
      <trkpt lat="48.6802" lon="1.84917">
        <ele>184.8</ele>
        <time>2013-03-31T09:29:09.000+02:00</time>
      </trkpt>
      <trkpt lat="48.68011" lon="1.84912">
        <ele>184.4</ele>
        <time>2013-03-31T09:29:15.000+02:00</time>
      </trkpt>
      <trkpt lat="48.68001" lon="1.84908">
        <ele>186.8</ele>
        <time>2013-03-31T09:29:22.000+02:00</time>
      </trkpt>
      <trkpt lat="48.67993" lon="1.84899">
        <ele>187.3</ele>
        <time>2013-03-31T09:29:30.000+02:00</time>
      </trkpt>
      <trkpt lat="48.67984" lon="1.84892">
        <ele>186.4</ele>
        <time>2013-03-31T09:29:36.000+02:00</time>
      </trkpt>
      <trkpt lat="48.67974" lon="1.84889">
        <ele>186.1</ele>
        <time>2013-03-31T09:29:41.000+02:00</time>
      </trkpt>
      <trkpt lat="48.67966" lon="1.84886">
        <ele>185.2</ele>
        <time>2013-03-31T09:29:46.000+02:00</time>
      </trkpt>
      <trkpt lat="48.67955" lon="1.84882">
        <ele>184.7</ele>
        <time>2013-03-31T09:29:52.000+02:00</time>
      </trkpt>
      <trkpt lat="48.67946" lon="1.84881">
        <ele>184.9</ele>
        <time>2013-03-31T09:29:58.000+02:00</time>
      </trkpt>
      <trkpt lat="48.67938" lon="1.84875">
        <ele>185.4</ele>
        <time>2013-03-31T09:30:04.000+02:00</time>
      </trkpt>
      <trkpt lat="48.6793" lon="1.84867">
        <ele>184.7</ele>
        <time>2013-03-31T09:30:11.000+02:00</time>
      </trkpt>
      <trkpt lat="48.67921" lon="1.84864">
        <ele>184.7</ele>
        <time>2013-03-31T09:30:17.000+02:00</time>
      </trkpt>
      <trkpt lat="48.67912" lon="1.84859">
        <ele>182.6</ele>
        <time>2013-03-31T09:30:23.000+02:00</time>
      </trkpt>
      <trkpt lat="48.67903" lon="1.84855">
        <ele>183.5</ele>
        <time>2013-03-31T09:30:29.000+02:00</time>
      </trkpt>
      <trkpt lat="48.67895" lon="1.84849">
        <ele>182.6</ele>
        <time>2013-03-31T09:30:35.000+02:00</time>
      </trkpt>
      <trkpt lat="48.67886" lon="1.84843">
        <ele>182.2</ele>
        <time>2013-03-31T09:30:42.000+02:00</time>
      </trkpt>
      <trkpt lat="48.67876" lon="1.84838">
        <ele>182.7</ele>
        <time>2013-03-31T09:30:49.000+02:00</time>
      </trkpt>
      <trkpt lat="48.67867" lon="1.84834">
        <ele>181.3</ele>
        <time>2013-03-31T09:30:55.000+02:00</time>
      </trkpt>
      <trkpt lat="48.67859" lon="1.84828">
        <ele>180.3</ele>
        <time>2013-03-31T09:31:04.000+02:00</time>
      </trkpt>
      <trkpt lat="48.67852" lon="1.84825">
        <ele>177.6</ele>
        <time>2013-03-31T09:31:28.000+02:00</time>
      </trkpt>
      <trkpt lat="48.6785" lon="1.84823">
        <ele>172.7</ele>
        <time>2013-03-31T09:32:28.000+02:00</time>
      </trkpt>
      <trkpt lat="48.67849" lon="1.84808">
        <ele>175.7</ele>
        <time>2013-03-31T09:32:38.000+02:00</time>
      </trkpt>
      <trkpt lat="48.6785" lon="1.84794">
        <ele>176.8</ele>
        <time>2013-03-31T09:32:45.000+02:00</time>
      </trkpt>
      <trkpt lat="48.67851" lon="1.8478">
        <ele>176.7</ele>
        <time>2013-03-31T09:32:52.000+02:00</time>
      </trkpt>
      <trkpt lat="48.67852" lon="1.84766">
        <ele>177.7</ele>
        <time>2013-03-31T09:32:59.000+02:00</time>
      </trkpt>
      <trkpt lat="48.67852" lon="1.84752">
        <ele>178.8</ele>
        <time>2013-03-31T09:33:05.000+02:00</time>
      </trkpt>
      <trkpt lat="48.67852" lon="1.84738">
        <ele>180.4</ele>
        <time>2013-03-31T09:33:12.000+02:00</time>
      </trkpt>
      <trkpt lat="48.67853" lon="1.84723">
        <ele>182.5</ele>
        <time>2013-03-31T09:33:19.000+02:00</time>
      </trkpt>
      <trkpt lat="48.67853" lon="1.8471">
        <ele>179.4</ele>
        <time>2013-03-31T09:33:25.000+02:00</time>
      </trkpt>
      <trkpt lat="48.67853" lon="1.84695">
        <ele>179.7</ele>
        <time>2013-03-31T09:33:32.000+02:00</time>
      </trkpt>
      <trkpt lat="48.67854" lon="1.84681">
        <ele>179.8</ele>
        <time>2013-03-31T09:33:39.000+02:00</time>
      </trkpt>
      <trkpt lat="48.67856" lon="1.84668">
        <ele>178.6</ele>
        <time>2013-03-31T09:33:45.000+02:00</time>
      </trkpt>
      <trkpt lat="48.67857" lon="1.84654">
        <ele>178.4</ele>
        <time>2013-03-31T09:33:51.000+02:00</time>
      </trkpt>
      <trkpt lat="48.67858" lon="1.84647">
        <ele>178.4</ele>
        <time>2013-03-31T09:34:00.000+02:00</time>
      </trkpt>
      <trkpt lat="48.67849" lon="1.84644">
        <ele>179.6</ele>
        <time>2013-03-31T09:34:09.000+02:00</time>
      </trkpt>
      <trkpt lat="48.6784" lon="1.84643">
        <ele>180</ele>
        <time>2013-03-31T09:34:17.000+02:00</time>
      </trkpt>
      <trkpt lat="48.67832" lon="1.84638">
        <ele>181.2</ele>
        <time>2013-03-31T09:34:23.000+02:00</time>
      </trkpt>
      <trkpt lat="48.67823" lon="1.84634">
        <ele>181</ele>
        <time>2013-03-31T09:34:30.000+02:00</time>
      </trkpt>
      <trkpt lat="48.67813" lon="1.84629">
        <ele>181.3</ele>
        <time>2013-03-31T09:34:36.000+02:00</time>
      </trkpt>
      <trkpt lat="48.67804" lon="1.84624">
        <ele>180.7</ele>
        <time>2013-03-31T09:34:43.000+02:00</time>
      </trkpt>
      <trkpt lat="48.67795" lon="1.84618">
        <ele>181.6</ele>
        <time>2013-03-31T09:34:49.000+02:00</time>
      </trkpt>
      <trkpt lat="48.67787" lon="1.84609">
        <ele>181.1</ele>
        <time>2013-03-31T09:34:55.000+02:00</time>
      </trkpt>
      <trkpt lat="48.67782" lon="1.84598">
        <ele>179.7</ele>
        <time>2013-03-31T09:35:04.000+02:00</time>
      </trkpt>
      <trkpt lat="48.6778" lon="1.84588">
        <ele>173.7</ele>
        <time>2013-03-31T09:35:38.000+02:00</time>
      </trkpt>
      <trkpt lat="48.67777" lon="1.84576">
        <ele>171.1</ele>
        <time>2013-03-31T09:35:47.000+02:00</time>
      </trkpt>
      <trkpt lat="48.67771" lon="1.84564">
        <ele>171.2</ele>
        <time>2013-03-31T09:35:55.000+02:00</time>
      </trkpt>
      <trkpt lat="48.67764" lon="1.84554">
        <ele>172</ele>
        <time>2013-03-31T09:36:02.000+02:00</time>
      </trkpt>
      <trkpt lat="48.67759" lon="1.84542">
        <ele>172.5</ele>
        <time>2013-03-31T09:36:09.000+02:00</time>
      </trkpt>
      <trkpt lat="48.67753" lon="1.84531">
        <ele>173.2</ele>
        <time>2013-03-31T09:36:16.000+02:00</time>
      </trkpt>
      <trkpt lat="48.67746" lon="1.84521">
        <ele>174.5</ele>
        <time>2013-03-31T09:36:23.000+02:00</time>
      </trkpt>
      <trkpt lat="48.67739" lon="1.84511">
        <ele>175.2</ele>
        <time>2013-03-31T09:36:29.000+02:00</time>
      </trkpt>
      <trkpt lat="48.67733" lon="1.84501">
        <ele>174.4</ele>
        <time>2013-03-31T09:36:35.000+02:00</time>
      </trkpt>
      <trkpt lat="48.67724" lon="1.84494">
        <ele>175.2</ele>
        <time>2013-03-31T09:36:41.000+02:00</time>
      </trkpt>
      <trkpt lat="48.67714" lon="1.8449">
        <ele>176.7</ele>
        <time>2013-03-31T09:36:48.000+02:00</time>
      </trkpt>
      <trkpt lat="48.67705" lon="1.84487">
        <ele>178.8</ele>
        <time>2013-03-31T09:36:55.000+02:00</time>
      </trkpt>
      <trkpt lat="48.67696" lon="1.84485">
        <ele>181</ele>
        <time>2013-03-31T09:37:03.000+02:00</time>
      </trkpt>
      <trkpt lat="48.67688" lon="1.8448">
        <ele>182.4</ele>
        <time>2013-03-31T09:37:10.000+02:00</time>
      </trkpt>
      <trkpt lat="48.67679" lon="1.84476">
        <ele>185.3</ele>
        <time>2013-03-31T09:37:17.000+02:00</time>
      </trkpt>
      <trkpt lat="48.67673" lon="1.84475">
        <ele>179.8</ele>
        <time>2013-03-31T09:37:38.000+02:00</time>
      </trkpt>
      <trkpt lat="48.67665" lon="1.84472">
        <ele>184.4</ele>
        <time>2013-03-31T09:37:50.000+02:00</time>
      </trkpt>
      <trkpt lat="48.67655" lon="1.84473">
        <ele>188.7</ele>
        <time>2013-03-31T09:37:58.000+02:00</time>
      </trkpt>
      <trkpt lat="48.67646" lon="1.84477">
        <ele>187.9</ele>
        <time>2013-03-31T09:38:04.000+02:00</time>
      </trkpt>
      <trkpt lat="48.67636" lon="1.84481">
        <ele>190</ele>
        <time>2013-03-31T09:38:11.000+02:00</time>
      </trkpt>
      <trkpt lat="48.67628" lon="1.84488">
        <ele>187.9</ele>
        <time>2013-03-31T09:38:17.000+02:00</time>
      </trkpt>
      <trkpt lat="48.67619" lon="1.84496">
        <ele>184.7</ele>
        <time>2013-03-31T09:38:23.000+02:00</time>
      </trkpt>
      <trkpt lat="48.67611" lon="1.84504">
        <ele>184.2</ele>
        <time>2013-03-31T09:38:29.000+02:00</time>
      </trkpt>
      <trkpt lat="48.67602" lon="1.84509">
        <ele>188.6</ele>
        <time>2013-03-31T09:38:36.000+02:00</time>
      </trkpt>
      <trkpt lat="48.67592" lon="1.84514">
        <ele>190.1</ele>
        <time>2013-03-31T09:38:44.000+02:00</time>
      </trkpt>
      <trkpt lat="48.67583" lon="1.84516">
        <ele>192</ele>
        <time>2013-03-31T09:38:50.000+02:00</time>
      </trkpt>
      <trkpt lat="48.67573" lon="1.84519">
        <ele>191.5</ele>
        <time>2013-03-31T09:38:57.000+02:00</time>
      </trkpt>
      <trkpt lat="48.67565" lon="1.84523">
        <ele>192.3</ele>
        <time>2013-03-31T09:39:02.000+02:00</time>
      </trkpt>
      <trkpt lat="48.67555" lon="1.84528">
        <ele>193.5</ele>
        <time>2013-03-31T09:39:09.000+02:00</time>
      </trkpt>
      <trkpt lat="48.67545" lon="1.84533">
        <ele>192.3</ele>
        <time>2013-03-31T09:39:15.000+02:00</time>
      </trkpt>
      <trkpt lat="48.67536" lon="1.8454">
        <ele>189.9</ele>
        <time>2013-03-31T09:39:21.000+02:00</time>
      </trkpt>
      <trkpt lat="48.67526" lon="1.84546">
        <ele>186.1</ele>
        <time>2013-03-31T09:39:27.000+02:00</time>
      </trkpt>
      <trkpt lat="48.67517" lon="1.84552">
        <ele>183.4</ele>
        <time>2013-03-31T09:39:35.000+02:00</time>
      </trkpt>
      <trkpt lat="48.67509" lon="1.84556">
        <ele>181.4</ele>
        <time>2013-03-31T09:40:02.000+02:00</time>
      </trkpt>
      <trkpt lat="48.675" lon="1.84557">
        <ele>183.4</ele>
        <time>2013-03-31T09:40:09.000+02:00</time>
      </trkpt>
      <trkpt lat="48.6749" lon="1.84559">
        <ele>189.8</ele>
        <time>2013-03-31T09:40:18.000+02:00</time>
      </trkpt>
      <trkpt lat="48.67481" lon="1.84563">
        <ele>189.6</ele>
        <time>2013-03-31T09:40:24.000+02:00</time>
      </trkpt>
      <trkpt lat="48.67474" lon="1.84572">
        <ele>190</ele>
        <time>2013-03-31T09:40:29.000+02:00</time>
      </trkpt>
      <trkpt lat="48.67466" lon="1.84581">
        <ele>192.7</ele>
        <time>2013-03-31T09:40:36.000+02:00</time>
      </trkpt>
      <trkpt lat="48.67458" lon="1.84588">
        <ele>193.1</ele>
        <time>2013-03-31T09:40:42.000+02:00</time>
      </trkpt>
      <trkpt lat="48.67449" lon="1.84596">
        <ele>193.3</ele>
        <time>2013-03-31T09:40:49.000+02:00</time>
      </trkpt>
      <trkpt lat="48.67439" lon="1.84597">
        <ele>192.6</ele>
        <time>2013-03-31T09:40:57.000+02:00</time>
      </trkpt>
      <trkpt lat="48.6743" lon="1.84594">
        <ele>192.2</ele>
        <time>2013-03-31T09:41:06.000+02:00</time>
      </trkpt>
      <trkpt lat="48.6742" lon="1.84589">
        <ele>190</ele>
        <time>2013-03-31T09:41:12.000+02:00</time>
      </trkpt>
      <trkpt lat="48.6741" lon="1.84587">
        <ele>189.3</ele>
        <time>2013-03-31T09:41:19.000+02:00</time>
      </trkpt>
      <trkpt lat="48.67401" lon="1.84583">
        <ele>191.3</ele>
        <time>2013-03-31T09:41:27.000+02:00</time>
      </trkpt>
      <trkpt lat="48.67392" lon="1.84579">
        <ele>190.8</ele>
        <time>2013-03-31T09:41:34.000+02:00</time>
      </trkpt>
      <trkpt lat="48.67381" lon="1.84575">
        <ele>188.2</ele>
        <time>2013-03-31T09:41:40.000+02:00</time>
      </trkpt>
      <trkpt lat="48.67372" lon="1.84572">
        <ele>186.2</ele>
        <time>2013-03-31T09:41:45.000+02:00</time>
      </trkpt>
      <trkpt lat="48.67362" lon="1.84569">
        <ele>184.7</ele>
        <time>2013-03-31T09:41:51.000+02:00</time>
      </trkpt>
      <trkpt lat="48.67353" lon="1.84566">
        <ele>182.6</ele>
        <time>2013-03-31T09:41:56.000+02:00</time>
      </trkpt>
      <trkpt lat="48.67343" lon="1.8456">
        <ele>181.7</ele>
        <time>2013-03-31T09:42:02.000+02:00</time>
      </trkpt>
      <trkpt lat="48.67334" lon="1.84556">
        <ele>181</ele>
        <time>2013-03-31T09:42:08.000+02:00</time>
      </trkpt>
      <trkpt lat="48.67325" lon="1.8455">
        <ele>180.7</ele>
        <time>2013-03-31T09:42:14.000+02:00</time>
      </trkpt>
      <trkpt lat="48.67315" lon="1.84547">
        <ele>179.5</ele>
        <time>2013-03-31T09:42:20.000+02:00</time>
      </trkpt>
      <trkpt lat="48.67307" lon="1.84541">
        <ele>180</ele>
        <time>2013-03-31T09:42:26.000+02:00</time>
      </trkpt>
      <trkpt lat="48.67297" lon="1.84536">
        <ele>180.8</ele>
        <time>2013-03-31T09:42:33.000+02:00</time>
      </trkpt>
      <trkpt lat="48.67287" lon="1.84532">
        <ele>181.9</ele>
        <time>2013-03-31T09:42:40.000+02:00</time>
      </trkpt>
      <trkpt lat="48.67278" lon="1.84527">
        <ele>181.2</ele>
        <time>2013-03-31T09:42:46.000+02:00</time>
      </trkpt>
      <trkpt lat="48.67269" lon="1.84523">
        <ele>182.2</ele>
        <time>2013-03-31T09:42:52.000+02:00</time>
      </trkpt>
      <trkpt lat="48.6726" lon="1.84518">
        <ele>182.7</ele>
        <time>2013-03-31T09:42:58.000+02:00</time>
      </trkpt>
      <trkpt lat="48.67251" lon="1.84513">
        <ele>182.3</ele>
        <time>2013-03-31T09:43:04.000+02:00</time>
      </trkpt>
      <trkpt lat="48.67242" lon="1.84506">
        <ele>187</ele>
        <time>2013-03-31T09:43:11.000+02:00</time>
      </trkpt>
      <trkpt lat="48.67233" lon="1.845">
        <ele>188</ele>
        <time>2013-03-31T09:43:18.000+02:00</time>
      </trkpt>
      <trkpt lat="48.67225" lon="1.84495">
        <ele>189.6</ele>
        <time>2013-03-31T09:43:25.000+02:00</time>
      </trkpt>
      <trkpt lat="48.67216" lon="1.84491">
        <ele>189.6</ele>
        <time>2013-03-31T09:43:30.000+02:00</time>
      </trkpt>
      <trkpt lat="48.67207" lon="1.84484">
        <ele>189.3</ele>
        <time>2013-03-31T09:43:36.000+02:00</time>
      </trkpt>
      <trkpt lat="48.67198" lon="1.84479">
        <ele>189</ele>
        <time>2013-03-31T09:43:42.000+02:00</time>
      </trkpt>
      <trkpt lat="48.67189" lon="1.84477">
        <ele>190.6</ele>
        <time>2013-03-31T09:43:48.000+02:00</time>
      </trkpt>
      <trkpt lat="48.67179" lon="1.84474">
        <ele>190.9</ele>
        <time>2013-03-31T09:43:54.000+02:00</time>
      </trkpt>
      <trkpt lat="48.6717" lon="1.84475">
        <ele>190.1</ele>
        <time>2013-03-31T09:44:00.000+02:00</time>
      </trkpt>
      <trkpt lat="48.67163" lon="1.84482">
        <ele>187.3</ele>
        <time>2013-03-31T09:44:09.000+02:00</time>
      </trkpt>
      <trkpt lat="48.67159" lon="1.84491">
        <ele>179.8</ele>
        <time>2013-03-31T09:44:26.000+02:00</time>
      </trkpt>
      <trkpt lat="48.67152" lon="1.84494">
        <ele>178.3</ele>
        <time>2013-03-31T09:44:38.000+02:00</time>
      </trkpt>
      <trkpt lat="48.67142" lon="1.84494">
        <ele>178.9</ele>
        <time>2013-03-31T09:44:45.000+02:00</time>
      </trkpt>
      <trkpt lat="48.67134" lon="1.84491">
        <ele>178.4</ele>
        <time>2013-03-31T09:44:52.000+02:00</time>
      </trkpt>
      <trkpt lat="48.67124" lon="1.84486">
        <ele>179</ele>
        <time>2013-03-31T09:44:59.000+02:00</time>
      </trkpt>
      <trkpt lat="48.67115" lon="1.84482">
        <ele>179.2</ele>
        <time>2013-03-31T09:45:05.000+02:00</time>
      </trkpt>
      <trkpt lat="48.67106" lon="1.84475">
        <ele>182.5</ele>
        <time>2013-03-31T09:45:12.000+02:00</time>
      </trkpt>
      <trkpt lat="48.67098" lon="1.84469">
        <ele>184.8</ele>
        <time>2013-03-31T09:45:19.000+02:00</time>
      </trkpt>
      <trkpt lat="48.6709" lon="1.84462">
        <ele>185.5</ele>
        <time>2013-03-31T09:45:25.000+02:00</time>
      </trkpt>
      <trkpt lat="48.67081" lon="1.84458">
        <ele>185.7</ele>
        <time>2013-03-31T09:45:30.000+02:00</time>
      </trkpt>
      <trkpt lat="48.67073" lon="1.84451">
        <ele>186.8</ele>
        <time>2013-03-31T09:45:37.000+02:00</time>
      </trkpt>
      <trkpt lat="48.67062" lon="1.84447">
        <ele>183.8</ele>
        <time>2013-03-31T09:45:43.000+02:00</time>
      </trkpt>
      <trkpt lat="48.67053" lon="1.84446">
        <ele>183.2</ele>
        <time>2013-03-31T09:45:49.000+02:00</time>
      </trkpt>
      <trkpt lat="48.67044" lon="1.84445">
        <ele>181.9</ele>
        <time>2013-03-31T09:45:55.000+02:00</time>
      </trkpt>
      <trkpt lat="48.67036" lon="1.84439">
        <ele>182.8</ele>
        <time>2013-03-31T09:46:01.000+02:00</time>
      </trkpt>
      <trkpt lat="48.67027" lon="1.84433">
        <ele>181.1</ele>
        <time>2013-03-31T09:46:07.000+02:00</time>
      </trkpt>
      <trkpt lat="48.67018" lon="1.8443">
        <ele>182.8</ele>
        <time>2013-03-31T09:46:13.000+02:00</time>
      </trkpt>
      <trkpt lat="48.6701" lon="1.84424">
        <ele>185.6</ele>
        <time>2013-03-31T09:46:20.000+02:00</time>
      </trkpt>
      <trkpt lat="48.67" lon="1.84423">
        <ele>189.6</ele>
        <time>2013-03-31T09:46:27.000+02:00</time>
      </trkpt>
      <trkpt lat="48.6699" lon="1.84424">
        <ele>192.9</ele>
        <time>2013-03-31T09:46:34.000+02:00</time>
      </trkpt>
      <trkpt lat="48.66981" lon="1.84424">
        <ele>191.9</ele>
        <time>2013-03-31T09:46:39.000+02:00</time>
      </trkpt>
      <trkpt lat="48.66971" lon="1.84424">
        <ele>190.7</ele>
        <time>2013-03-31T09:46:46.000+02:00</time>
      </trkpt>
      <trkpt lat="48.66961" lon="1.84424">
        <ele>190.1</ele>
        <time>2013-03-31T09:46:52.000+02:00</time>
      </trkpt>
      <trkpt lat="48.66951" lon="1.84425">
        <ele>191</ele>
        <time>2013-03-31T09:46:58.000+02:00</time>
      </trkpt>
      <trkpt lat="48.66942" lon="1.84427">
        <ele>190.7</ele>
        <time>2013-03-31T09:47:04.000+02:00</time>
      </trkpt>
      <trkpt lat="48.66932" lon="1.84427">
        <ele>191.3</ele>
        <time>2013-03-31T09:47:12.000+02:00</time>
      </trkpt>
      <trkpt lat="48.66922" lon="1.84429">
        <ele>188.6</ele>
        <time>2013-03-31T09:47:18.000+02:00</time>
      </trkpt>
      <trkpt lat="48.66912" lon="1.84427">
        <ele>186.3</ele>
        <time>2013-03-31T09:47:24.000+02:00</time>
      </trkpt>
      <trkpt lat="48.66902" lon="1.84423">
        <ele>185.3</ele>
        <time>2013-03-31T09:47:30.000+02:00</time>
      </trkpt>
      <trkpt lat="48.66894" lon="1.84416">
        <ele>186.3</ele>
        <time>2013-03-31T09:47:36.000+02:00</time>
      </trkpt>
      <trkpt lat="48.66885" lon="1.84411">
        <ele>190.4</ele>
        <time>2013-03-31T09:47:44.000+02:00</time>
      </trkpt>
      <trkpt lat="48.66875" lon="1.8441">
        <ele>193.2</ele>
        <time>2013-03-31T09:47:50.000+02:00</time>
      </trkpt>
      <trkpt lat="48.66866" lon="1.8441">
        <ele>192.6</ele>
        <time>2013-03-31T09:47:56.000+02:00</time>
      </trkpt>
      <trkpt lat="48.66856" lon="1.8441">
        <ele>192.7</ele>
        <time>2013-03-31T09:48:02.000+02:00</time>
      </trkpt>
      <trkpt lat="48.66847" lon="1.84409">
        <ele>195.4</ele>
        <time>2013-03-31T09:48:09.000+02:00</time>
      </trkpt>
      <trkpt lat="48.66838" lon="1.8441">
        <ele>194.5</ele>
        <time>2013-03-31T09:48:14.000+02:00</time>
      </trkpt>
      <trkpt lat="48.66828" lon="1.84414">
        <ele>194.2</ele>
        <time>2013-03-31T09:48:20.000+02:00</time>
      </trkpt>
      <trkpt lat="48.66819" lon="1.8442">
        <ele>196</ele>
        <time>2013-03-31T09:48:26.000+02:00</time>
      </trkpt>
      <trkpt lat="48.66812" lon="1.84429">
        <ele>196.2</ele>
        <time>2013-03-31T09:48:33.000+02:00</time>
      </trkpt>
      <trkpt lat="48.66805" lon="1.84441">
        <ele>197.2</ele>
        <time>2013-03-31T09:48:39.000+02:00</time>
      </trkpt>
      <trkpt lat="48.66801" lon="1.84454">
        <ele>197.6</ele>
        <time>2013-03-31T09:48:45.000+02:00</time>
      </trkpt>
      <trkpt lat="48.66794" lon="1.84465">
        <ele>196.9</ele>
        <time>2013-03-31T09:48:52.000+02:00</time>
      </trkpt>
      <trkpt lat="48.66787" lon="1.84475">
        <ele>192.7</ele>
        <time>2013-03-31T09:48:59.000+02:00</time>
      </trkpt>
      <trkpt lat="48.66778" lon="1.84477">
        <ele>184.3</ele>
        <time>2013-03-31T09:49:06.000+02:00</time>
      </trkpt>
      <trkpt lat="48.66774" lon="1.84483">
        <ele>174.7</ele>
        <time>2013-03-31T09:49:49.000+02:00</time>
      </trkpt>
      <trkpt lat="48.66773" lon="1.84474">
        <ele>174.5</ele>
        <time>2013-03-31T09:50:14.000+02:00</time>
      </trkpt>
      <trkpt lat="48.66774" lon="1.8446">
        <ele>172.9</ele>
        <time>2013-03-31T09:50:23.000+02:00</time>
      </trkpt>
      <trkpt lat="48.66775" lon="1.84444">
        <ele>170.5</ele>
        <time>2013-03-31T09:50:30.000+02:00</time>
      </trkpt>
      <trkpt lat="48.66776" lon="1.8443">
        <ele>170.8</ele>
        <time>2013-03-31T09:50:36.000+02:00</time>
      </trkpt>
      <trkpt lat="48.66777" lon="1.84415">
        <ele>170.5</ele>
        <time>2013-03-31T09:50:43.000+02:00</time>
      </trkpt>
      <trkpt lat="48.66778" lon="1.84402">
        <ele>170.4</ele>
        <time>2013-03-31T09:50:49.000+02:00</time>
      </trkpt>
      <trkpt lat="48.66779" lon="1.84386">
        <ele>170.4</ele>
        <time>2013-03-31T09:50:55.000+02:00</time>
      </trkpt>
      <trkpt lat="48.66781" lon="1.84371">
        <ele>170.6</ele>
        <time>2013-03-31T09:51:01.000+02:00</time>
      </trkpt>
      <trkpt lat="48.66781" lon="1.84357">
        <ele>169.1</ele>
        <time>2013-03-31T09:51:07.000+02:00</time>
      </trkpt>
      <trkpt lat="48.66782" lon="1.84342">
        <ele>169.5</ele>
        <time>2013-03-31T09:51:14.000+02:00</time>
      </trkpt>
      <trkpt lat="48.6678" lon="1.84327">
        <ele>170.4</ele>
        <time>2013-03-31T09:51:22.000+02:00</time>
      </trkpt>
      <trkpt lat="48.66782" lon="1.84312">
        <ele>170.9</ele>
        <time>2013-03-31T09:51:28.000+02:00</time>
      </trkpt>
      <trkpt lat="48.66779" lon="1.843">
        <ele>172.1</ele>
        <time>2013-03-31T09:51:35.000+02:00</time>
      </trkpt>
      <trkpt lat="48.66769" lon="1.84292">
        <ele>174.5</ele>
        <time>2013-03-31T09:51:43.000+02:00</time>
      </trkpt>
      <trkpt lat="48.66761" lon="1.84286">
        <ele>178</ele>
        <time>2013-03-31T09:51:50.000+02:00</time>
      </trkpt>
      <trkpt lat="48.66751" lon="1.84281">
        <ele>179.9</ele>
        <time>2013-03-31T09:51:57.000+02:00</time>
      </trkpt>
      <trkpt lat="48.66742" lon="1.84277">
        <ele>182.2</ele>
        <time>2013-03-31T09:52:03.000+02:00</time>
      </trkpt>
      <trkpt lat="48.66734" lon="1.8427">
        <ele>183.8</ele>
        <time>2013-03-31T09:52:10.000+02:00</time>
      </trkpt>
      <trkpt lat="48.66724" lon="1.84265">
        <ele>185</ele>
        <time>2013-03-31T09:52:17.000+02:00</time>
      </trkpt>
      <trkpt lat="48.66715" lon="1.84259">
        <ele>186.2</ele>
        <time>2013-03-31T09:52:24.000+02:00</time>
      </trkpt>
      <trkpt lat="48.66706" lon="1.84254">
        <ele>187.1</ele>
        <time>2013-03-31T09:52:31.000+02:00</time>
      </trkpt>
      <trkpt lat="48.66696" lon="1.8425">
        <ele>186.9</ele>
        <time>2013-03-31T09:52:37.000+02:00</time>
      </trkpt>
      <trkpt lat="48.66688" lon="1.84242">
        <ele>189.3</ele>
        <time>2013-03-31T09:52:45.000+02:00</time>
      </trkpt>
      <trkpt lat="48.6668" lon="1.84237">
        <ele>190.7</ele>
        <time>2013-03-31T09:52:50.000+02:00</time>
      </trkpt>
      <trkpt lat="48.6667" lon="1.84232">
        <ele>192</ele>
        <time>2013-03-31T09:52:57.000+02:00</time>
      </trkpt>
      <trkpt lat="48.6666" lon="1.84228">
        <ele>192.9</ele>
        <time>2013-03-31T09:53:04.000+02:00</time>
      </trkpt>
      <trkpt lat="48.6665" lon="1.84224">
        <ele>193.2</ele>
        <time>2013-03-31T09:53:10.000+02:00</time>
      </trkpt>
      <trkpt lat="48.66641" lon="1.8422">
        <ele>191</ele>
        <time>2013-03-31T09:53:15.000+02:00</time>
      </trkpt>
      <trkpt lat="48.66633" lon="1.84216">
        <ele>189.4</ele>
        <time>2013-03-31T09:53:21.000+02:00</time>
      </trkpt>
      <trkpt lat="48.66623" lon="1.84211">
        <ele>185</ele>
        <time>2013-03-31T09:53:28.000+02:00</time>
      </trkpt>
      <trkpt lat="48.66613" lon="1.84208">
        <ele>183.3</ele>
        <time>2013-03-31T09:53:34.000+02:00</time>
      </trkpt>
      <trkpt lat="48.66604" lon="1.84206">
        <ele>180.1</ele>
        <time>2013-03-31T09:53:39.000+02:00</time>
      </trkpt>
      <trkpt lat="48.66595" lon="1.84201">
        <ele>179</ele>
        <time>2013-03-31T09:53:45.000+02:00</time>
      </trkpt>
      <trkpt lat="48.66586" lon="1.84196">
        <ele>177.8</ele>
        <time>2013-03-31T09:53:51.000+02:00</time>
      </trkpt>
      <trkpt lat="48.66577" lon="1.84189">
        <ele>180.2</ele>
        <time>2013-03-31T09:53:58.000+02:00</time>
      </trkpt>
      <trkpt lat="48.66568" lon="1.84186">
        <ele>181.6</ele>
        <time>2013-03-31T09:54:05.000+02:00</time>
      </trkpt>
      <trkpt lat="48.66558" lon="1.8418">
        <ele>184.9</ele>
        <time>2013-03-31T09:54:11.000+02:00</time>
      </trkpt>
      <trkpt lat="48.66549" lon="1.84176">
        <ele>184.3</ele>
        <time>2013-03-31T09:54:17.000+02:00</time>
      </trkpt>
      <trkpt lat="48.6654" lon="1.84169">
        <ele>187.9</ele>
        <time>2013-03-31T09:54:23.000+02:00</time>
      </trkpt>
      <trkpt lat="48.66531" lon="1.84164">
        <ele>189.7</ele>
        <time>2013-03-31T09:54:30.000+02:00</time>
      </trkpt>
      <trkpt lat="48.66522" lon="1.84158">
        <ele>192.3</ele>
        <time>2013-03-31T09:54:40.000+02:00</time>
      </trkpt>
      <trkpt lat="48.66514" lon="1.84154">
        <ele>190.7</ele>
        <time>2013-03-31T09:54:51.000+02:00</time>
      </trkpt>
      <trkpt lat="48.66506" lon="1.8415">
        <ele>191</ele>
        <time>2013-03-31T09:55:03.000+02:00</time>
      </trkpt>
      <trkpt lat="48.66498" lon="1.84147">
        <ele>189.8</ele>
        <time>2013-03-31T09:55:10.000+02:00</time>
      </trkpt>
      <trkpt lat="48.66493" lon="1.84149">
        <ele>175.5</ele>
        <time>2013-03-31T09:55:29.000+02:00</time>
      </trkpt>
      <trkpt lat="48.66484" lon="1.84143">
        <ele>173.7</ele>
        <time>2013-03-31T09:55:41.000+02:00</time>
      </trkpt>
      <trkpt lat="48.66474" lon="1.84139">
        <ele>174</ele>
        <time>2013-03-31T09:55:48.000+02:00</time>
      </trkpt>
      <trkpt lat="48.66464" lon="1.84135">
        <ele>181.8</ele>
        <time>2013-03-31T09:55:56.000+02:00</time>
      </trkpt>
      <trkpt lat="48.66456" lon="1.8413">
        <ele>185.7</ele>
        <time>2013-03-31T09:56:01.000+02:00</time>
      </trkpt>
      <trkpt lat="48.66447" lon="1.84124">
        <ele>188.9</ele>
        <time>2013-03-31T09:56:06.000+02:00</time>
      </trkpt>
      <trkpt lat="48.66437" lon="1.8412">
        <ele>193.2</ele>
        <time>2013-03-31T09:56:14.000+02:00</time>
      </trkpt>
      <trkpt lat="48.66429" lon="1.84114">
        <ele>195.6</ele>
        <time>2013-03-31T09:56:26.000+02:00</time>
      </trkpt>
      <trkpt lat="48.66425" lon="1.84118">
        <ele>192.9</ele>
        <time>2013-03-31T09:56:43.000+02:00</time>
      </trkpt>
      <trkpt lat="48.66422" lon="1.84116">
        <ele>179.4</ele>
        <time>2013-03-31T09:57:01.000+02:00</time>
      </trkpt>
      <trkpt lat="48.66417" lon="1.84118">
        <ele>176.6</ele>
        <time>2013-03-31T09:57:16.000+02:00</time>
      </trkpt>
      <trkpt lat="48.6641" lon="1.8411">
        <ele>181.2</ele>
        <time>2013-03-31T09:57:26.000+02:00</time>
      </trkpt>
      <trkpt lat="48.66401" lon="1.84102">
        <ele>181.8</ele>
        <time>2013-03-31T09:57:34.000+02:00</time>
      </trkpt>
      <trkpt lat="48.66393" lon="1.84097">
        <ele>184.6</ele>
        <time>2013-03-31T09:57:41.000+02:00</time>
      </trkpt>
      <trkpt lat="48.66384" lon="1.8409">
        <ele>190.5</ele>
        <time>2013-03-31T09:57:50.000+02:00</time>
      </trkpt>
      <trkpt lat="48.66378" lon="1.8409">
        <ele>189.7</ele>
        <time>2013-03-31T09:58:10.000+02:00</time>
      </trkpt>
      <trkpt lat="48.66383" lon="1.84085">
        <ele>191.9</ele>
        <time>2013-03-31T09:58:26.000+02:00</time>
      </trkpt>
      <trkpt lat="48.66377" lon="1.8409">
        <ele>182.9</ele>
        <time>2013-03-31T09:58:43.000+02:00</time>
      </trkpt>
      <trkpt lat="48.66373" lon="1.84101">
        <ele>178.9</ele>
        <time>2013-03-31T09:58:58.000+02:00</time>
      </trkpt>
      <trkpt lat="48.66376" lon="1.84099">
        <ele>182.9</ele>
        <time>2013-03-31T09:59:18.000+02:00</time>
      </trkpt>
      <trkpt lat="48.66376" lon="1.84101">
        <ele>186.3</ele>
        <time>2013-03-31T09:59:35.000+02:00</time>
      </trkpt>
      <trkpt lat="48.6638" lon="1.8411">
        <ele>191.7</ele>
        <time>2013-03-31T09:59:47.000+02:00</time>
      </trkpt>
      <trkpt lat="48.66372" lon="1.84111">
        <ele>178.4</ele>
        <time>2013-03-31T09:59:58.000+02:00</time>
      </trkpt>
      <trkpt lat="48.66366" lon="1.84113">
        <ele>169.9</ele>
        <time>2013-03-31T10:00:06.000+02:00</time>
      </trkpt>
      <trkpt lat="48.66367" lon="1.84105">
        <ele>170</ele>
        <time>2013-03-31T10:00:26.000+02:00</time>
      </trkpt>
      <trkpt lat="48.6637" lon="1.84098">
        <ele>171.8</ele>
        <time>2013-03-31T10:00:40.000+02:00</time>
      </trkpt>
      <trkpt lat="48.66376" lon="1.84092">
        <ele>174.7</ele>
        <time>2013-03-31T10:00:54.000+02:00</time>
      </trkpt>
      <trkpt lat="48.66384" lon="1.84094">
        <ele>177.1</ele>
        <time>2013-03-31T10:01:06.000+02:00</time>
      </trkpt>
      <trkpt lat="48.66385" lon="1.84091">
        <ele>169.2</ele>
        <time>2013-03-31T10:01:31.000+02:00</time>
      </trkpt>
      <trkpt lat="48.66393" lon="1.84095">
        <ele>177.7</ele>
        <time>2013-03-31T10:01:42.000+02:00</time>
      </trkpt>
      <trkpt lat="48.66402" lon="1.84098">
        <ele>184</ele>
        <time>2013-03-31T10:01:48.000+02:00</time>
      </trkpt>
      <trkpt lat="48.6641" lon="1.84105">
        <ele>187.2</ele>
        <time>2013-03-31T10:01:56.000+02:00</time>
      </trkpt>
      <trkpt lat="48.66414" lon="1.84119">
        <ele>194.6</ele>
        <time>2013-03-31T10:02:06.000+02:00</time>
      </trkpt>
      <trkpt lat="48.66415" lon="1.84133">
        <ele>196.9</ele>
        <time>2013-03-31T10:02:15.000+02:00</time>
      </trkpt>
      <trkpt lat="48.66412" lon="1.84146">
        <ele>200.7</ele>
        <time>2013-03-31T10:02:22.000+02:00</time>
      </trkpt>
      <trkpt lat="48.6641" lon="1.8416">
        <ele>206.4</ele>
        <time>2013-03-31T10:02:31.000+02:00</time>
      </trkpt>
      <trkpt lat="48.66408" lon="1.84174">
        <ele>208.9</ele>
        <time>2013-03-31T10:02:38.000+02:00</time>
      </trkpt>
      <trkpt lat="48.66407" lon="1.84189">
        <ele>212</ele>
        <time>2013-03-31T10:02:46.000+02:00</time>
      </trkpt>
      <trkpt lat="48.66404" lon="1.84204">
        <ele>212.2</ele>
        <time>2013-03-31T10:02:52.000+02:00</time>
      </trkpt>
      <trkpt lat="48.66401" lon="1.84218">
        <ele>212.7</ele>
        <time>2013-03-31T10:02:59.000+02:00</time>
      </trkpt>
      <trkpt lat="48.66397" lon="1.84233">
        <ele>211</ele>
        <time>2013-03-31T10:03:06.000+02:00</time>
      </trkpt>
      <trkpt lat="48.66393" lon="1.84247">
        <ele>208.7</ele>
        <time>2013-03-31T10:03:13.000+02:00</time>
      </trkpt>
      <trkpt lat="48.6639" lon="1.84261">
        <ele>207.6</ele>
        <time>2013-03-31T10:03:19.000+02:00</time>
      </trkpt>
      <trkpt lat="48.66386" lon="1.84273">
        <ele>205.6</ele>
        <time>2013-03-31T10:03:25.000+02:00</time>
      </trkpt>
      <trkpt lat="48.66382" lon="1.84286">
        <ele>203.4</ele>
        <time>2013-03-31T10:03:31.000+02:00</time>
      </trkpt>
      <trkpt lat="48.66378" lon="1.84301">
        <ele>199.8</ele>
        <time>2013-03-31T10:03:37.000+02:00</time>
      </trkpt>
      <trkpt lat="48.66376" lon="1.84315">
        <ele>192.8</ele>
        <time>2013-03-31T10:03:42.000+02:00</time>
      </trkpt>
      <trkpt lat="48.66382" lon="1.84326">
        <ele>189.7</ele>
        <time>2013-03-31T10:03:50.000+02:00</time>
      </trkpt>
      <trkpt lat="48.66385" lon="1.84335">
        <ele>184.4</ele>
        <time>2013-03-31T10:04:02.000+02:00</time>
      </trkpt>
      <trkpt lat="48.66389" lon="1.84343">
        <ele>176</ele>
        <time>2013-03-31T10:04:25.000+02:00</time>
      </trkpt>
      <trkpt lat="48.66398" lon="1.8435">
        <ele>173</ele>
        <time>2013-03-31T10:04:37.000+02:00</time>
      </trkpt>
      <trkpt lat="48.66406" lon="1.84357">
        <ele>176.4</ele>
        <time>2013-03-31T10:04:47.000+02:00</time>
      </trkpt>
      <trkpt lat="48.66414" lon="1.84363">
        <ele>177.3</ele>
        <time>2013-03-31T10:04:54.000+02:00</time>
      </trkpt>
      <trkpt lat="48.66422" lon="1.84369">
        <ele>181.4</ele>
        <time>2013-03-31T10:05:02.000+02:00</time>
      </trkpt>
      <trkpt lat="48.6643" lon="1.84377">
        <ele>184.2</ele>
        <time>2013-03-31T10:05:09.000+02:00</time>
      </trkpt>
      <trkpt lat="48.66439" lon="1.84386">
        <ele>186.5</ele>
        <time>2013-03-31T10:05:16.000+02:00</time>
      </trkpt>
      <trkpt lat="48.66448" lon="1.84394">
        <ele>189.5</ele>
        <time>2013-03-31T10:05:22.000+02:00</time>
      </trkpt>
      <trkpt lat="48.66456" lon="1.84403">
        <ele>191.3</ele>
        <time>2013-03-31T10:05:29.000+02:00</time>
      </trkpt>
      <trkpt lat="48.66461" lon="1.84415">
        <ele>194.1</ele>
        <time>2013-03-31T10:05:36.000+02:00</time>
      </trkpt>
      <trkpt lat="48.66465" lon="1.84428">
        <ele>197.1</ele>
        <time>2013-03-31T10:05:43.000+02:00</time>
      </trkpt>
      <trkpt lat="48.6647" lon="1.8444">
        <ele>198.1</ele>
        <time>2013-03-31T10:05:49.000+02:00</time>
      </trkpt>
      <trkpt lat="48.66475" lon="1.84452">
        <ele>198.8</ele>
        <time>2013-03-31T10:05:56.000+02:00</time>
      </trkpt>
      <trkpt lat="48.66479" lon="1.84465">
        <ele>197</ele>
        <time>2013-03-31T10:06:02.000+02:00</time>
      </trkpt>
      <trkpt lat="48.66483" lon="1.84479">
        <ele>199.1</ele>
        <time>2013-03-31T10:06:08.000+02:00</time>
      </trkpt>
      <trkpt lat="48.66489" lon="1.84491">
        <ele>201</ele>
        <time>2013-03-31T10:06:14.000+02:00</time>
      </trkpt>
      <trkpt lat="48.66496" lon="1.84501">
        <ele>202.1</ele>
        <time>2013-03-31T10:06:20.000+02:00</time>
      </trkpt>
      <trkpt lat="48.66501" lon="1.84513">
        <ele>202.8</ele>
        <time>2013-03-31T10:06:26.000+02:00</time>
      </trkpt>
      <trkpt lat="48.66508" lon="1.84524">
        <ele>205</ele>
        <time>2013-03-31T10:06:33.000+02:00</time>
      </trkpt>
      <trkpt lat="48.66514" lon="1.84536">
        <ele>201</ele>
        <time>2013-03-31T10:06:40.000+02:00</time>
      </trkpt>
      <trkpt lat="48.66521" lon="1.84547">
        <ele>199.7</ele>
        <time>2013-03-31T10:06:47.000+02:00</time>
      </trkpt>
      <trkpt lat="48.66528" lon="1.84557">
        <ele>198.6</ele>
        <time>2013-03-31T10:06:53.000+02:00</time>
      </trkpt>
      <trkpt lat="48.66534" lon="1.84569">
        <ele>195</ele>
        <time>2013-03-31T10:06:59.000+02:00</time>
      </trkpt>
      <trkpt lat="48.66539" lon="1.84581">
        <ele>194.6</ele>
        <time>2013-03-31T10:07:06.000+02:00</time>
      </trkpt>
      <trkpt lat="48.66545" lon="1.84592">
        <ele>194</ele>
        <time>2013-03-31T10:07:12.000+02:00</time>
      </trkpt>
      <trkpt lat="48.6655" lon="1.84604">
        <ele>193.6</ele>
        <time>2013-03-31T10:07:18.000+02:00</time>
      </trkpt>
      <trkpt lat="48.66555" lon="1.84615">
        <ele>191.8</ele>
        <time>2013-03-31T10:07:24.000+02:00</time>
      </trkpt>
      <trkpt lat="48.66561" lon="1.84627">
        <ele>192.2</ele>
        <time>2013-03-31T10:07:31.000+02:00</time>
      </trkpt>
      <trkpt lat="48.66568" lon="1.84635">
        <ele>189.3</ele>
        <time>2013-03-31T10:07:37.000+02:00</time>
      </trkpt>
      <trkpt lat="48.66576" lon="1.84644">
        <ele>186.3</ele>
        <time>2013-03-31T10:07:44.000+02:00</time>
      </trkpt>
      <trkpt lat="48.66585" lon="1.84647">
        <ele>185.2</ele>
        <time>2013-03-31T10:07:51.000+02:00</time>
      </trkpt>
      <trkpt lat="48.66595" lon="1.84651">
        <ele>182.2</ele>
        <time>2013-03-31T10:07:59.000+02:00</time>
      </trkpt>
      <trkpt lat="48.66604" lon="1.84657">
        <ele>177.6</ele>
        <time>2013-03-31T10:08:05.000+02:00</time>
      </trkpt>
      <trkpt lat="48.66612" lon="1.84663">
        <ele>174.8</ele>
        <time>2013-03-31T10:08:12.000+02:00</time>
      </trkpt>
      <trkpt lat="48.66621" lon="1.84667">
        <ele>174.8</ele>
        <time>2013-03-31T10:08:19.000+02:00</time>
      </trkpt>
      <trkpt lat="48.66631" lon="1.84671">
        <ele>177.4</ele>
        <time>2013-03-31T10:08:26.000+02:00</time>
      </trkpt>
      <trkpt lat="48.66639" lon="1.84679">
        <ele>172.1</ele>
        <time>2013-03-31T10:08:32.000+02:00</time>
      </trkpt>
      <trkpt lat="48.66647" lon="1.84686">
        <ele>170.6</ele>
        <time>2013-03-31T10:08:38.000+02:00</time>
      </trkpt>
      <trkpt lat="48.66657" lon="1.84688">
        <ele>170</ele>
        <time>2013-03-31T10:08:46.000+02:00</time>
      </trkpt>
      <trkpt lat="48.66666" lon="1.84688">
        <ele>168.5</ele>
        <time>2013-03-31T10:08:53.000+02:00</time>
      </trkpt>
      <trkpt lat="48.66675" lon="1.84686">
        <ele>167.8</ele>
        <time>2013-03-31T10:09:00.000+02:00</time>
      </trkpt>
      <trkpt lat="48.66685" lon="1.84682">
        <ele>169</ele>
        <time>2013-03-31T10:09:09.000+02:00</time>
      </trkpt>
      <trkpt lat="48.6669" lon="1.84672">
        <ele>170.9</ele>
        <time>2013-03-31T10:09:20.000+02:00</time>
      </trkpt>
      <trkpt lat="48.66691" lon="1.84671">
        <ele>175.7</ele>
        <time>2013-03-31T10:09:39.000+02:00</time>
      </trkpt>
      <trkpt lat="48.66691" lon="1.84658">
        <ele>176.2</ele>
        <time>2013-03-31T10:09:51.000+02:00</time>
      </trkpt>
      <trkpt lat="48.66692" lon="1.84647">
        <ele>173.8</ele>
        <time>2013-03-31T10:10:06.000+02:00</time>
      </trkpt>
      <trkpt lat="48.66702" lon="1.8465">
        <ele>171.4</ele>
        <time>2013-03-31T10:10:16.000+02:00</time>
      </trkpt>
      <trkpt lat="48.66711" lon="1.84648">
        <ele>171.4</ele>
        <time>2013-03-31T10:10:22.000+02:00</time>
      </trkpt>
      <trkpt lat="48.66721" lon="1.84648">
        <ele>172.3</ele>
        <time>2013-03-31T10:10:30.000+02:00</time>
      </trkpt>
      <trkpt lat="48.66731" lon="1.8465">
        <ele>175.1</ele>
        <time>2013-03-31T10:10:39.000+02:00</time>
      </trkpt>
      <trkpt lat="48.66739" lon="1.84657">
        <ele>178.3</ele>
        <time>2013-03-31T10:10:48.000+02:00</time>
      </trkpt>
      <trkpt lat="48.66747" lon="1.84666">
        <ele>180.4</ele>
        <time>2013-03-31T10:10:56.000+02:00</time>
      </trkpt>
      <trkpt lat="48.66754" lon="1.84674">
        <ele>180.1</ele>
        <time>2013-03-31T10:11:03.000+02:00</time>
      </trkpt>
      <trkpt lat="48.66761" lon="1.84683">
        <ele>182</ele>
        <time>2013-03-31T10:11:13.000+02:00</time>
      </trkpt>
      <trkpt lat="48.66764" lon="1.84676">
        <ele>188.3</ele>
        <time>2013-03-31T10:11:37.000+02:00</time>
      </trkpt>
      <trkpt lat="48.66763" lon="1.84685">
        <ele>188.9</ele>
        <time>2013-03-31T10:11:51.000+02:00</time>
      </trkpt>
      <trkpt lat="48.66763" lon="1.84699">
        <ele>189.1</ele>
        <time>2013-03-31T10:11:58.000+02:00</time>
      </trkpt>
      <trkpt lat="48.66763" lon="1.84714">
        <ele>189.7</ele>
        <time>2013-03-31T10:12:05.000+02:00</time>
      </trkpt>
      <trkpt lat="48.66762" lon="1.84729">
        <ele>188.2</ele>
        <time>2013-03-31T10:12:12.000+02:00</time>
      </trkpt>
      <trkpt lat="48.66762" lon="1.84742">
        <ele>185.3</ele>
        <time>2013-03-31T10:12:18.000+02:00</time>
      </trkpt>
      <trkpt lat="48.66759" lon="1.84753">
        <ele>186.5</ele>
        <time>2013-03-31T10:12:29.000+02:00</time>
      </trkpt>
      <trkpt lat="48.66764" lon="1.84771">
        <ele>185.4</ele>
        <time>2013-03-31T10:12:34.000+02:00</time>
      </trkpt>
      <trkpt lat="48.66769" lon="1.84786">
        <ele>178.1</ele>
        <time>2013-03-31T10:12:37.000+02:00</time>
      </trkpt>
      <trkpt lat="48.66766" lon="1.84799">
        <ele>175</ele>
        <time>2013-03-31T10:12:41.000+02:00</time>
      </trkpt>
      <trkpt lat="48.66762" lon="1.84812">
        <ele>174.8</ele>
        <time>2013-03-31T10:12:47.000+02:00</time>
      </trkpt>
      <trkpt lat="48.66762" lon="1.84825">
        <ele>176.5</ele>
        <time>2013-03-31T10:12:53.000+02:00</time>
      </trkpt>
      <trkpt lat="48.66761" lon="1.8484">
        <ele>177.7</ele>
        <time>2013-03-31T10:13:01.000+02:00</time>
      </trkpt>
      <trkpt lat="48.6676" lon="1.84855">
        <ele>180.8</ele>
        <time>2013-03-31T10:13:08.000+02:00</time>
      </trkpt>
      <trkpt lat="48.66759" lon="1.84869">
        <ele>182.5</ele>
        <time>2013-03-31T10:13:15.000+02:00</time>
      </trkpt>
      <trkpt lat="48.66754" lon="1.84881">
        <ele>181</ele>
        <time>2013-03-31T10:13:22.000+02:00</time>
      </trkpt>
      <trkpt lat="48.66745" lon="1.84883">
        <ele>180.1</ele>
        <time>2013-03-31T10:13:29.000+02:00</time>
      </trkpt>
      <trkpt lat="48.66737" lon="1.84889">
        <ele>180.6</ele>
        <time>2013-03-31T10:13:36.000+02:00</time>
      </trkpt>
      <trkpt lat="48.6673" lon="1.84899">
        <ele>184.3</ele>
        <time>2013-03-31T10:13:44.000+02:00</time>
      </trkpt>
      <trkpt lat="48.66725" lon="1.84911">
        <ele>188.2</ele>
        <time>2013-03-31T10:13:52.000+02:00</time>
      </trkpt>
      <trkpt lat="48.66722" lon="1.84924">
        <ele>190.4</ele>
        <time>2013-03-31T10:13:59.000+02:00</time>
      </trkpt>
      <trkpt lat="48.66718" lon="1.84938">
        <ele>191.7</ele>
        <time>2013-03-31T10:14:07.000+02:00</time>
      </trkpt>
      <trkpt lat="48.66715" lon="1.84952">
        <ele>191.8</ele>
        <time>2013-03-31T10:14:14.000+02:00</time>
      </trkpt>
      <trkpt lat="48.66715" lon="1.84967">
        <ele>192.5</ele>
        <time>2013-03-31T10:14:21.000+02:00</time>
      </trkpt>
      <trkpt lat="48.66715" lon="1.84981">
        <ele>193.7</ele>
        <time>2013-03-31T10:14:28.000+02:00</time>
      </trkpt>
      <trkpt lat="48.66716" lon="1.84996">
        <ele>191.4</ele>
        <time>2013-03-31T10:14:35.000+02:00</time>
      </trkpt>
      <trkpt lat="48.66715" lon="1.85011">
        <ele>188.8</ele>
        <time>2013-03-31T10:14:41.000+02:00</time>
      </trkpt>
      <trkpt lat="48.66712" lon="1.85024">
        <ele>189.1</ele>
        <time>2013-03-31T10:14:48.000+02:00</time>
      </trkpt>
      <trkpt lat="48.66708" lon="1.85036">
        <ele>190.9</ele>
        <time>2013-03-31T10:14:55.000+02:00</time>
      </trkpt>
      <trkpt lat="48.66704" lon="1.8505">
        <ele>195.8</ele>
        <time>2013-03-31T10:15:04.000+02:00</time>
      </trkpt>
      <trkpt lat="48.66702" lon="1.85064">
        <ele>197.3</ele>
        <time>2013-03-31T10:15:11.000+02:00</time>
      </trkpt>
      <trkpt lat="48.66701" lon="1.85079">
        <ele>194.5</ele>
        <time>2013-03-31T10:15:17.000+02:00</time>
      </trkpt>
      <trkpt lat="48.667" lon="1.85093">
        <ele>192.4</ele>
        <time>2013-03-31T10:15:22.000+02:00</time>
      </trkpt>
      <trkpt lat="48.66694" lon="1.85104">
        <ele>191.3</ele>
        <time>2013-03-31T10:15:28.000+02:00</time>
      </trkpt>
      <trkpt lat="48.66688" lon="1.85115">
        <ele>191.1</ele>
        <time>2013-03-31T10:15:34.000+02:00</time>
      </trkpt>
      <trkpt lat="48.66681" lon="1.85122">
        <ele>190.2</ele>
        <time>2013-03-31T10:15:40.000+02:00</time>
      </trkpt>
      <trkpt lat="48.66671" lon="1.85126">
        <ele>187.9</ele>
        <time>2013-03-31T10:15:47.000+02:00</time>
      </trkpt>
      <trkpt lat="48.66662" lon="1.85128">
        <ele>185.9</ele>
        <time>2013-03-31T10:15:55.000+02:00</time>
      </trkpt>
      <trkpt lat="48.66653" lon="1.85129">
        <ele>184.2</ele>
        <time>2013-03-31T10:16:02.000+02:00</time>
      </trkpt>
      <trkpt lat="48.66644" lon="1.85132">
        <ele>177.9</ele>
        <time>2013-03-31T10:16:22.000+02:00</time>
      </trkpt>
      <trkpt lat="48.66636" lon="1.8514">
        <ele>177.1</ele>
        <time>2013-03-31T10:16:29.000+02:00</time>
      </trkpt>
      <trkpt lat="48.66628" lon="1.85149">
        <ele>176.4</ele>
        <time>2013-03-31T10:16:36.000+02:00</time>
      </trkpt>
      <trkpt lat="48.6662" lon="1.85156">
        <ele>175.4</ele>
        <time>2013-03-31T10:16:42.000+02:00</time>
      </trkpt>
      <trkpt lat="48.66612" lon="1.85162">
        <ele>174.9</ele>
        <time>2013-03-31T10:16:48.000+02:00</time>
      </trkpt>
      <trkpt lat="48.66604" lon="1.8517">
        <ele>175</ele>
        <time>2013-03-31T10:16:54.000+02:00</time>
      </trkpt>
      <trkpt lat="48.66597" lon="1.85181">
        <ele>177.2</ele>
        <time>2013-03-31T10:17:01.000+02:00</time>
      </trkpt>
      <trkpt lat="48.66591" lon="1.85192">
        <ele>180.1</ele>
        <time>2013-03-31T10:17:08.000+02:00</time>
      </trkpt>
      <trkpt lat="48.66584" lon="1.85201">
        <ele>181.5</ele>
        <time>2013-03-31T10:17:14.000+02:00</time>
      </trkpt>
      <trkpt lat="48.66575" lon="1.85203">
        <ele>182.3</ele>
        <time>2013-03-31T10:17:22.000+02:00</time>
      </trkpt>
      <trkpt lat="48.66566" lon="1.85198">
        <ele>183.6</ele>
        <time>2013-03-31T10:17:31.000+02:00</time>
      </trkpt>
      <trkpt lat="48.66556" lon="1.85194">
        <ele>184.4</ele>
        <time>2013-03-31T10:17:40.000+02:00</time>
      </trkpt>
      <trkpt lat="48.66547" lon="1.85195">
        <ele>184.4</ele>
        <time>2013-03-31T10:17:46.000+02:00</time>
      </trkpt>
      <trkpt lat="48.66538" lon="1.85201">
        <ele>189.1</ele>
        <time>2013-03-31T10:17:54.000+02:00</time>
      </trkpt>
      <trkpt lat="48.6653" lon="1.85211">
        <ele>192.6</ele>
        <time>2013-03-31T10:18:02.000+02:00</time>
      </trkpt>
      <trkpt lat="48.66521" lon="1.85218">
        <ele>191.2</ele>
        <time>2013-03-31T10:18:08.000+02:00</time>
      </trkpt>
      <trkpt lat="48.66512" lon="1.85224">
        <ele>191.1</ele>
        <time>2013-03-31T10:18:14.000+02:00</time>
      </trkpt>
      <trkpt lat="48.66505" lon="1.85231">
        <ele>192.1</ele>
        <time>2013-03-31T10:18:20.000+02:00</time>
      </trkpt>
      <trkpt lat="48.66498" lon="1.85242">
        <ele>193.2</ele>
        <time>2013-03-31T10:18:28.000+02:00</time>
      </trkpt>
      <trkpt lat="48.6649" lon="1.85251">
        <ele>195.4</ele>
        <time>2013-03-31T10:18:35.000+02:00</time>
      </trkpt>
      <trkpt lat="48.66484" lon="1.8526">
        <ele>195.9</ele>
        <time>2013-03-31T10:18:42.000+02:00</time>
      </trkpt>
      <trkpt lat="48.66475" lon="1.85266">
        <ele>194.4</ele>
        <time>2013-03-31T10:18:49.000+02:00</time>
      </trkpt>
      <trkpt lat="48.66466" lon="1.85273">
        <ele>194.4</ele>
        <time>2013-03-31T10:18:57.000+02:00</time>
      </trkpt>
      <trkpt lat="48.66457" lon="1.85278">
        <ele>193.7</ele>
        <time>2013-03-31T10:19:03.000+02:00</time>
      </trkpt>
      <trkpt lat="48.66448" lon="1.85284">
        <ele>193.7</ele>
        <time>2013-03-31T10:19:10.000+02:00</time>
      </trkpt>
      <trkpt lat="48.6644" lon="1.85291">
        <ele>192.9</ele>
        <time>2013-03-31T10:19:17.000+02:00</time>
      </trkpt>
      <trkpt lat="48.66434" lon="1.85302">
        <ele>196.2</ele>
        <time>2013-03-31T10:19:25.000+02:00</time>
      </trkpt>
      <trkpt lat="48.6643" lon="1.85315">
        <ele>199.5</ele>
        <time>2013-03-31T10:19:33.000+02:00</time>
      </trkpt>
      <trkpt lat="48.66425" lon="1.85327">
        <ele>199.5</ele>
        <time>2013-03-31T10:19:40.000+02:00</time>
      </trkpt>
      <trkpt lat="48.66419" lon="1.85337">
        <ele>200.7</ele>
        <time>2013-03-31T10:19:47.000+02:00</time>
      </trkpt>
      <trkpt lat="48.66417" lon="1.85352">
        <ele>201.6</ele>
        <time>2013-03-31T10:19:55.000+02:00</time>
      </trkpt>
      <trkpt lat="48.66418" lon="1.85367">
        <ele>200.9</ele>
        <time>2013-03-31T10:20:02.000+02:00</time>
      </trkpt>
      <trkpt lat="48.66421" lon="1.85379">
        <ele>201.9</ele>
        <time>2013-03-31T10:20:09.000+02:00</time>
      </trkpt>
      <trkpt lat="48.6642" lon="1.85395">
        <ele>202.4</ele>
        <time>2013-03-31T10:20:16.000+02:00</time>
      </trkpt>
      <trkpt lat="48.6642" lon="1.8541">
        <ele>206.1</ele>
        <time>2013-03-31T10:20:24.000+02:00</time>
      </trkpt>
      <trkpt lat="48.66419" lon="1.85424">
        <ele>207.2</ele>
        <time>2013-03-31T10:20:31.000+02:00</time>
      </trkpt>
      <trkpt lat="48.66416" lon="1.85437">
        <ele>206.8</ele>
        <time>2013-03-31T10:20:37.000+02:00</time>
      </trkpt>
      <trkpt lat="48.66415" lon="1.85452">
        <ele>206.4</ele>
        <time>2013-03-31T10:20:43.000+02:00</time>
      </trkpt>
      <trkpt lat="48.66413" lon="1.85465">
        <ele>208.6</ele>
        <time>2013-03-31T10:20:50.000+02:00</time>
      </trkpt>
      <trkpt lat="48.66409" lon="1.85478">
        <ele>210.1</ele>
        <time>2013-03-31T10:20:56.000+02:00</time>
      </trkpt>
      <trkpt lat="48.66402" lon="1.85487">
        <ele>208.3</ele>
        <time>2013-03-31T10:21:02.000+02:00</time>
      </trkpt>
      <trkpt lat="48.66395" lon="1.85495">
        <ele>206.6</ele>
        <time>2013-03-31T10:21:08.000+02:00</time>
      </trkpt>
      <trkpt lat="48.66387" lon="1.85503">
        <ele>204.2</ele>
        <time>2013-03-31T10:21:14.000+02:00</time>
      </trkpt>
      <trkpt lat="48.66378" lon="1.85511">
        <ele>201.1</ele>
        <time>2013-03-31T10:21:20.000+02:00</time>
      </trkpt>
      <trkpt lat="48.66371" lon="1.85519">
        <ele>199</ele>
        <time>2013-03-31T10:21:26.000+02:00</time>
      </trkpt>
      <trkpt lat="48.66363" lon="1.85529">
        <ele>196.3</ele>
        <time>2013-03-31T10:21:32.000+02:00</time>
      </trkpt>
      <trkpt lat="48.66355" lon="1.85535">
        <ele>194.1</ele>
        <time>2013-03-31T10:21:38.000+02:00</time>
      </trkpt>
      <trkpt lat="48.66346" lon="1.85542">
        <ele>192</ele>
        <time>2013-03-31T10:21:44.000+02:00</time>
      </trkpt>
      <trkpt lat="48.66338" lon="1.85549">
        <ele>191.7</ele>
        <time>2013-03-31T10:21:51.000+02:00</time>
      </trkpt>
      <trkpt lat="48.66329" lon="1.85555">
        <ele>192.6</ele>
        <time>2013-03-31T10:21:58.000+02:00</time>
      </trkpt>
      <trkpt lat="48.6632" lon="1.85561">
        <ele>196</ele>
        <time>2013-03-31T10:22:06.000+02:00</time>
      </trkpt>
      <trkpt lat="48.66312" lon="1.85568">
        <ele>196.1</ele>
        <time>2013-03-31T10:22:12.000+02:00</time>
      </trkpt>
      <trkpt lat="48.66303" lon="1.85576">
        <ele>195.8</ele>
        <time>2013-03-31T10:22:19.000+02:00</time>
      </trkpt>
      <trkpt lat="48.66297" lon="1.85588">
        <ele>194.2</ele>
        <time>2013-03-31T10:22:26.000+02:00</time>
      </trkpt>
      <trkpt lat="48.6629" lon="1.856">
        <ele>193.3</ele>
        <time>2013-03-31T10:22:33.000+02:00</time>
      </trkpt>
      <trkpt lat="48.66284" lon="1.85612">
        <ele>192</ele>
        <time>2013-03-31T10:22:40.000+02:00</time>
      </trkpt>
      <trkpt lat="48.66276" lon="1.85622">
        <ele>193.2</ele>
        <time>2013-03-31T10:22:47.000+02:00</time>
      </trkpt>
      <trkpt lat="48.66269" lon="1.85631">
        <ele>196.5</ele>
        <time>2013-03-31T10:22:54.000+02:00</time>
      </trkpt>
      <trkpt lat="48.66263" lon="1.85642">
        <ele>198.3</ele>
        <time>2013-03-31T10:23:00.000+02:00</time>
      </trkpt>
      <trkpt lat="48.66257" lon="1.85652">
        <ele>201.3</ele>
        <time>2013-03-31T10:23:07.000+02:00</time>
      </trkpt>
      <trkpt lat="48.6625" lon="1.85663">
        <ele>203.6</ele>
        <time>2013-03-31T10:23:14.000+02:00</time>
      </trkpt>
      <trkpt lat="48.66243" lon="1.85674">
        <ele>203.4</ele>
        <time>2013-03-31T10:23:20.000+02:00</time>
      </trkpt>
      <trkpt lat="48.66239" lon="1.85688">
        <ele>203.2</ele>
        <time>2013-03-31T10:23:26.000+02:00</time>
      </trkpt>
      <trkpt lat="48.66235" lon="1.857">
        <ele>202.5</ele>
        <time>2013-03-31T10:23:32.000+02:00</time>
      </trkpt>
      <trkpt lat="48.66231" lon="1.85713">
        <ele>202.2</ele>
        <time>2013-03-31T10:23:38.000+02:00</time>
      </trkpt>
      <trkpt lat="48.66225" lon="1.85726">
        <ele>201.9</ele>
        <time>2013-03-31T10:23:45.000+02:00</time>
      </trkpt>
      <trkpt lat="48.66219" lon="1.85737">
        <ele>201.8</ele>
        <time>2013-03-31T10:23:52.000+02:00</time>
      </trkpt>
      <trkpt lat="48.66212" lon="1.85748">
        <ele>201.3</ele>
        <time>2013-03-31T10:23:59.000+02:00</time>
      </trkpt>
      <trkpt lat="48.66206" lon="1.8576">
        <ele>201.1</ele>
        <time>2013-03-31T10:24:06.000+02:00</time>
      </trkpt>
      <trkpt lat="48.662" lon="1.8577">
        <ele>203.3</ele>
        <time>2013-03-31T10:24:13.000+02:00</time>
      </trkpt>
      <trkpt lat="48.66194" lon="1.85782">
        <ele>201.6</ele>
        <time>2013-03-31T10:24:20.000+02:00</time>
      </trkpt>
      <trkpt lat="48.6619" lon="1.85794">
        <ele>200.7</ele>
        <time>2013-03-31T10:24:26.000+02:00</time>
      </trkpt>
      <trkpt lat="48.66183" lon="1.85806">
        <ele>198.3</ele>
        <time>2013-03-31T10:24:32.000+02:00</time>
      </trkpt>
      <trkpt lat="48.66181" lon="1.85814">
        <ele>194.9</ele>
        <time>2013-03-31T10:24:49.000+02:00</time>
      </trkpt>
      <trkpt lat="48.66179" lon="1.85824">
        <ele>192</ele>
        <time>2013-03-31T10:25:06.000+02:00</time>
      </trkpt>
      <trkpt lat="48.66175" lon="1.85833">
        <ele>193</ele>
        <time>2013-03-31T10:25:20.000+02:00</time>
      </trkpt>
      <trkpt lat="48.66165" lon="1.85839">
        <ele>189.5</ele>
        <time>2013-03-31T10:25:27.000+02:00</time>
      </trkpt>
      <trkpt lat="48.66157" lon="1.85844">
        <ele>186.8</ele>
        <time>2013-03-31T10:25:33.000+02:00</time>
      </trkpt>
      <trkpt lat="48.66147" lon="1.85848">
        <ele>185.3</ele>
        <time>2013-03-31T10:25:39.000+02:00</time>
      </trkpt>
      <trkpt lat="48.66139" lon="1.85853">
        <ele>184</ele>
        <time>2013-03-31T10:25:45.000+02:00</time>
      </trkpt>
      <trkpt lat="48.66129" lon="1.85858">
        <ele>182.5</ele>
        <time>2013-03-31T10:25:52.000+02:00</time>
      </trkpt>
      <trkpt lat="48.66121" lon="1.85864">
        <ele>181.1</ele>
        <time>2013-03-31T10:25:59.000+02:00</time>
      </trkpt>
      <trkpt lat="48.66111" lon="1.85869">
        <ele>180.3</ele>
        <time>2013-03-31T10:26:06.000+02:00</time>
      </trkpt>
      <trkpt lat="48.66103" lon="1.85874">
        <ele>179.5</ele>
        <time>2013-03-31T10:26:13.000+02:00</time>
      </trkpt>
      <trkpt lat="48.66094" lon="1.85879">
        <ele>177.7</ele>
        <time>2013-03-31T10:26:20.000+02:00</time>
      </trkpt>
      <trkpt lat="48.66085" lon="1.85884">
        <ele>176.6</ele>
        <time>2013-03-31T10:26:27.000+02:00</time>
      </trkpt>
      <trkpt lat="48.66076" lon="1.85889">
        <ele>175.9</ele>
        <time>2013-03-31T10:26:34.000+02:00</time>
      </trkpt>
      <trkpt lat="48.66068" lon="1.85894">
        <ele>175.6</ele>
        <time>2013-03-31T10:26:42.000+02:00</time>
      </trkpt>
      <trkpt lat="48.66067" lon="1.85905">
        <ele>176.3</ele>
        <time>2013-03-31T10:26:56.000+02:00</time>
      </trkpt>
      <trkpt lat="48.66069" lon="1.85918">
        <ele>177.9</ele>
        <time>2013-03-31T10:27:04.000+02:00</time>
      </trkpt>
      <trkpt lat="48.66072" lon="1.85933">
        <ele>179.8</ele>
        <time>2013-03-31T10:27:12.000+02:00</time>
      </trkpt>
      <trkpt lat="48.66074" lon="1.85947">
        <ele>179.5</ele>
        <time>2013-03-31T10:27:20.000+02:00</time>
      </trkpt>
      <trkpt lat="48.66076" lon="1.85961">
        <ele>179.5</ele>
        <time>2013-03-31T10:27:27.000+02:00</time>
      </trkpt>
      <trkpt lat="48.66079" lon="1.85974">
        <ele>179.6</ele>
        <time>2013-03-31T10:27:35.000+02:00</time>
      </trkpt>
      <trkpt lat="48.66083" lon="1.85988">
        <ele>180.2</ele>
        <time>2013-03-31T10:27:43.000+02:00</time>
      </trkpt>
      <trkpt lat="48.66086" lon="1.86001">
        <ele>180.6</ele>
        <time>2013-03-31T10:27:50.000+02:00</time>
      </trkpt>
      <trkpt lat="48.66089" lon="1.86015">
        <ele>179.9</ele>
        <time>2013-03-31T10:27:57.000+02:00</time>
      </trkpt>
      <trkpt lat="48.66092" lon="1.86029">
        <ele>179.7</ele>
        <time>2013-03-31T10:28:04.000+02:00</time>
      </trkpt>
      <trkpt lat="48.66096" lon="1.86044">
        <ele>178.9</ele>
        <time>2013-03-31T10:28:11.000+02:00</time>
      </trkpt>
      <trkpt lat="48.66098" lon="1.86057">
        <ele>179.1</ele>
        <time>2013-03-31T10:28:18.000+02:00</time>
      </trkpt>
      <trkpt lat="48.66102" lon="1.8607">
        <ele>178.7</ele>
        <time>2013-03-31T10:28:25.000+02:00</time>
      </trkpt>
      <trkpt lat="48.66104" lon="1.86084">
        <ele>179.5</ele>
        <time>2013-03-31T10:28:32.000+02:00</time>
      </trkpt>
      <trkpt lat="48.66107" lon="1.86098">
        <ele>180</ele>
        <time>2013-03-31T10:28:39.000+02:00</time>
      </trkpt>
      <trkpt lat="48.66109" lon="1.86112">
        <ele>179.9</ele>
        <time>2013-03-31T10:28:46.000+02:00</time>
      </trkpt>
      <trkpt lat="48.66112" lon="1.86126">
        <ele>179.9</ele>
        <time>2013-03-31T10:28:53.000+02:00</time>
      </trkpt>
      <trkpt lat="48.66116" lon="1.86139">
        <ele>179.2</ele>
        <time>2013-03-31T10:29:00.000+02:00</time>
      </trkpt>
      <trkpt lat="48.66119" lon="1.86153">
        <ele>178.7</ele>
        <time>2013-03-31T10:29:07.000+02:00</time>
      </trkpt>
      <trkpt lat="48.66121" lon="1.86166">
        <ele>178.6</ele>
        <time>2013-03-31T10:29:15.000+02:00</time>
      </trkpt>
      <trkpt lat="48.66124" lon="1.86175">
        <ele>178.9</ele>
        <time>2013-03-31T10:29:29.000+02:00</time>
      </trkpt>
      <trkpt lat="48.66127" lon="1.8619">
        <ele>177.7</ele>
        <time>2013-03-31T10:29:36.000+02:00</time>
      </trkpt>
      <trkpt lat="48.6613" lon="1.86205">
        <ele>176.6</ele>
        <time>2013-03-31T10:29:44.000+02:00</time>
      </trkpt>
      <trkpt lat="48.66133" lon="1.86217">
        <ele>176.7</ele>
        <time>2013-03-31T10:30:02.000+02:00</time>
      </trkpt>
      <trkpt lat="48.66137" lon="1.86224">
        <ele>177.5</ele>
        <time>2013-03-31T10:30:55.000+02:00</time>
      </trkpt>
      <trkpt lat="48.6614" lon="1.86238">
        <ele>178.2</ele>
        <time>2013-03-31T10:31:04.000+02:00</time>
      </trkpt>
      <trkpt lat="48.66141" lon="1.86253">
        <ele>179.5</ele>
        <time>2013-03-31T10:31:13.000+02:00</time>
      </trkpt>
      <trkpt lat="48.66143" lon="1.86267">
        <ele>180.5</ele>
        <time>2013-03-31T10:31:22.000+02:00</time>
      </trkpt>
      <trkpt lat="48.66146" lon="1.86281">
        <ele>180.6</ele>
        <time>2013-03-31T10:31:30.000+02:00</time>
      </trkpt>
      <trkpt lat="48.66149" lon="1.86295">
        <ele>180.3</ele>
        <time>2013-03-31T10:31:38.000+02:00</time>
      </trkpt>
      <trkpt lat="48.66153" lon="1.86309">
        <ele>181.2</ele>
        <time>2013-03-31T10:31:45.000+02:00</time>
      </trkpt>
      <trkpt lat="48.66156" lon="1.86324">
        <ele>181.7</ele>
        <time>2013-03-31T10:31:52.000+02:00</time>
      </trkpt>
      <trkpt lat="48.66159" lon="1.86338">
        <ele>181.9</ele>
        <time>2013-03-31T10:31:59.000+02:00</time>
      </trkpt>
      <trkpt lat="48.66163" lon="1.86353">
        <ele>182.2</ele>
        <time>2013-03-31T10:32:06.000+02:00</time>
      </trkpt>
      <trkpt lat="48.66166" lon="1.86366">
        <ele>181.9</ele>
        <time>2013-03-31T10:32:12.000+02:00</time>
      </trkpt>
      <trkpt lat="48.66169" lon="1.8638">
        <ele>183.1</ele>
        <time>2013-03-31T10:32:19.000+02:00</time>
      </trkpt>
      <trkpt lat="48.66172" lon="1.86394">
        <ele>182.4</ele>
        <time>2013-03-31T10:32:26.000+02:00</time>
      </trkpt>
      <trkpt lat="48.66174" lon="1.86408">
        <ele>181.4</ele>
        <time>2013-03-31T10:32:33.000+02:00</time>
      </trkpt>
      <trkpt lat="48.66177" lon="1.86421">
        <ele>180.8</ele>
        <time>2013-03-31T10:32:39.000+02:00</time>
      </trkpt>
      <trkpt lat="48.6618" lon="1.86435">
        <ele>180.5</ele>
        <time>2013-03-31T10:32:45.000+02:00</time>
      </trkpt>
      <trkpt lat="48.66183" lon="1.86449">
        <ele>180.1</ele>
        <time>2013-03-31T10:32:52.000+02:00</time>
      </trkpt>
      <trkpt lat="48.66186" lon="1.86462">
        <ele>180.5</ele>
        <time>2013-03-31T10:32:59.000+02:00</time>
      </trkpt>
      <trkpt lat="48.66189" lon="1.86477">
        <ele>180.5</ele>
        <time>2013-03-31T10:33:06.000+02:00</time>
      </trkpt>
      <trkpt lat="48.66192" lon="1.86491">
        <ele>180.5</ele>
        <time>2013-03-31T10:33:13.000+02:00</time>
      </trkpt>
      <trkpt lat="48.66195" lon="1.86505">
        <ele>180.5</ele>
        <time>2013-03-31T10:33:20.000+02:00</time>
      </trkpt>
      <trkpt lat="48.66197" lon="1.86519">
        <ele>180.2</ele>
        <time>2013-03-31T10:33:27.000+02:00</time>
      </trkpt>
      <trkpt lat="48.662" lon="1.86532">
        <ele>180.1</ele>
        <time>2013-03-31T10:33:34.000+02:00</time>
      </trkpt>
      <trkpt lat="48.66203" lon="1.86546">
        <ele>180</ele>
        <time>2013-03-31T10:33:41.000+02:00</time>
      </trkpt>
      <trkpt lat="48.66206" lon="1.86559">
        <ele>179.7</ele>
        <time>2013-03-31T10:33:48.000+02:00</time>
      </trkpt>
      <trkpt lat="48.66209" lon="1.86572">
        <ele>179.4</ele>
        <time>2013-03-31T10:33:55.000+02:00</time>
      </trkpt>
      <trkpt lat="48.66212" lon="1.86586">
        <ele>179.6</ele>
        <time>2013-03-31T10:34:02.000+02:00</time>
      </trkpt>
      <trkpt lat="48.66215" lon="1.866">
        <ele>179.4</ele>
        <time>2013-03-31T10:34:09.000+02:00</time>
      </trkpt>
      <trkpt lat="48.66218" lon="1.86614">
        <ele>179.4</ele>
        <time>2013-03-31T10:34:16.000+02:00</time>
      </trkpt>
      <trkpt lat="48.66221" lon="1.86627">
        <ele>178.9</ele>
        <time>2013-03-31T10:34:23.000+02:00</time>
      </trkpt>
      <trkpt lat="48.66224" lon="1.86642">
        <ele>178.5</ele>
        <time>2013-03-31T10:34:30.000+02:00</time>
      </trkpt>
      <trkpt lat="48.66228" lon="1.86657">
        <ele>177.4</ele>
        <time>2013-03-31T10:34:37.000+02:00</time>
      </trkpt>
      <trkpt lat="48.66231" lon="1.86671">
        <ele>176.6</ele>
        <time>2013-03-31T10:34:44.000+02:00</time>
      </trkpt>
      <trkpt lat="48.66234" lon="1.86685">
        <ele>176.5</ele>
        <time>2013-03-31T10:34:51.000+02:00</time>
      </trkpt>
      <trkpt lat="48.66237" lon="1.86699">
        <ele>176.3</ele>
        <time>2013-03-31T10:34:58.000+02:00</time>
      </trkpt>
      <trkpt lat="48.6624" lon="1.86712">
        <ele>176.3</ele>
        <time>2013-03-31T10:35:05.000+02:00</time>
      </trkpt>
      <trkpt lat="48.66243" lon="1.86721">
        <ele>172.9</ele>
        <time>2013-03-31T10:35:55.000+02:00</time>
      </trkpt>
      <trkpt lat="48.66246" lon="1.86734">
        <ele>174.1</ele>
        <time>2013-03-31T10:36:04.000+02:00</time>
      </trkpt>
      <trkpt lat="48.66248" lon="1.86749">
        <ele>175</ele>
        <time>2013-03-31T10:36:12.000+02:00</time>
      </trkpt>
      <trkpt lat="48.66251" lon="1.86762">
        <ele>175.7</ele>
        <time>2013-03-31T10:36:19.000+02:00</time>
      </trkpt>
      <trkpt lat="48.66254" lon="1.86776">
        <ele>176.2</ele>
        <time>2013-03-31T10:36:26.000+02:00</time>
      </trkpt>
      <trkpt lat="48.66257" lon="1.86789">
        <ele>176.9</ele>
        <time>2013-03-31T10:36:33.000+02:00</time>
      </trkpt>
      <trkpt lat="48.6626" lon="1.86802">
        <ele>177.3</ele>
        <time>2013-03-31T10:36:40.000+02:00</time>
      </trkpt>
      <trkpt lat="48.66262" lon="1.86816">
        <ele>177.8</ele>
        <time>2013-03-31T10:36:47.000+02:00</time>
      </trkpt>
      <trkpt lat="48.66265" lon="1.8683">
        <ele>178.4</ele>
        <time>2013-03-31T10:36:54.000+02:00</time>
      </trkpt>
      <trkpt lat="48.66269" lon="1.86843">
        <ele>178.9</ele>
        <time>2013-03-31T10:37:01.000+02:00</time>
      </trkpt>
      <trkpt lat="48.66271" lon="1.86856">
        <ele>179.9</ele>
        <time>2013-03-31T10:37:08.000+02:00</time>
      </trkpt>
      <trkpt lat="48.66274" lon="1.8687">
        <ele>180.4</ele>
        <time>2013-03-31T10:37:15.000+02:00</time>
      </trkpt>
      <trkpt lat="48.66277" lon="1.86883">
        <ele>180.4</ele>
        <time>2013-03-31T10:37:21.000+02:00</time>
      </trkpt>
      <trkpt lat="48.6628" lon="1.86898">
        <ele>179.7</ele>
        <time>2013-03-31T10:37:28.000+02:00</time>
      </trkpt>
      <trkpt lat="48.66283" lon="1.86912">
        <ele>178.2</ele>
        <time>2013-03-31T10:37:35.000+02:00</time>
      </trkpt>
      <trkpt lat="48.66286" lon="1.86925">
        <ele>178.1</ele>
        <time>2013-03-31T10:37:41.000+02:00</time>
      </trkpt>
      <trkpt lat="48.66289" lon="1.86939">
        <ele>176.7</ele>
        <time>2013-03-31T10:37:48.000+02:00</time>
      </trkpt>
      <trkpt lat="48.66291" lon="1.86952">
        <ele>176.5</ele>
        <time>2013-03-31T10:37:55.000+02:00</time>
      </trkpt>
      <trkpt lat="48.66295" lon="1.86967">
        <ele>176.7</ele>
        <time>2013-03-31T10:38:02.000+02:00</time>
      </trkpt>
      <trkpt lat="48.66298" lon="1.86979">
        <ele>177.6</ele>
        <time>2013-03-31T10:38:09.000+02:00</time>
      </trkpt>
      <trkpt lat="48.66302" lon="1.86992">
        <ele>178.6</ele>
        <time>2013-03-31T10:38:16.000+02:00</time>
      </trkpt>
      <trkpt lat="48.66304" lon="1.87006">
        <ele>177.4</ele>
        <time>2013-03-31T10:38:22.000+02:00</time>
      </trkpt>
      <trkpt lat="48.66306" lon="1.8702">
        <ele>178.2</ele>
        <time>2013-03-31T10:38:29.000+02:00</time>
      </trkpt>
      <trkpt lat="48.66309" lon="1.87033">
        <ele>177.9</ele>
        <time>2013-03-31T10:38:41.000+02:00</time>
      </trkpt>
      <trkpt lat="48.66313" lon="1.87048">
        <ele>177.6</ele>
        <time>2013-03-31T10:38:49.000+02:00</time>
      </trkpt>
      <trkpt lat="48.66317" lon="1.87061">
        <ele>176.9</ele>
        <time>2013-03-31T10:38:56.000+02:00</time>
      </trkpt>
      <trkpt lat="48.66321" lon="1.87075">
        <ele>176.2</ele>
        <time>2013-03-31T10:39:03.000+02:00</time>
      </trkpt>
      <trkpt lat="48.66325" lon="1.87087">
        <ele>176.2</ele>
        <time>2013-03-31T10:39:09.000+02:00</time>
      </trkpt>
      <trkpt lat="48.6633" lon="1.87099">
        <ele>176</ele>
        <time>2013-03-31T10:39:15.000+02:00</time>
      </trkpt>
      <trkpt lat="48.66335" lon="1.87112">
        <ele>176.1</ele>
        <time>2013-03-31T10:39:22.000+02:00</time>
      </trkpt>
      <trkpt lat="48.66339" lon="1.87126">
        <ele>176.6</ele>
        <time>2013-03-31T10:39:29.000+02:00</time>
      </trkpt>
      <trkpt lat="48.66344" lon="1.87139">
        <ele>176.7</ele>
        <time>2013-03-31T10:39:36.000+02:00</time>
      </trkpt>
      <trkpt lat="48.66349" lon="1.87153">
        <ele>176.5</ele>
        <time>2013-03-31T10:39:43.000+02:00</time>
      </trkpt>
      <trkpt lat="48.66354" lon="1.87166">
        <ele>175.9</ele>
        <time>2013-03-31T10:39:50.000+02:00</time>
      </trkpt>
      <trkpt lat="48.66359" lon="1.8718">
        <ele>175.4</ele>
        <time>2013-03-31T10:39:57.000+02:00</time>
      </trkpt>
      <trkpt lat="48.66364" lon="1.87193">
        <ele>175.2</ele>
        <time>2013-03-31T10:40:04.000+02:00</time>
      </trkpt>
      <trkpt lat="48.66368" lon="1.87205">
        <ele>174.6</ele>
        <time>2013-03-31T10:40:10.000+02:00</time>
      </trkpt>
      <trkpt lat="48.66373" lon="1.87217">
        <ele>174.2</ele>
        <time>2013-03-31T10:40:16.000+02:00</time>
      </trkpt>
      <trkpt lat="48.66377" lon="1.87229">
        <ele>173.8</ele>
        <time>2013-03-31T10:40:22.000+02:00</time>
      </trkpt>
      <trkpt lat="48.66382" lon="1.87242">
        <ele>173.8</ele>
        <time>2013-03-31T10:40:29.000+02:00</time>
      </trkpt>
      <trkpt lat="48.66387" lon="1.87254">
        <ele>173.6</ele>
        <time>2013-03-31T10:40:35.000+02:00</time>
      </trkpt>
      <trkpt lat="48.66392" lon="1.87267">
        <ele>173.6</ele>
        <time>2013-03-31T10:40:42.000+02:00</time>
      </trkpt>
      <trkpt lat="48.66396" lon="1.87281">
        <ele>173.3</ele>
        <time>2013-03-31T10:40:49.000+02:00</time>
      </trkpt>
      <trkpt lat="48.66401" lon="1.87293">
        <ele>173.6</ele>
        <time>2013-03-31T10:40:55.000+02:00</time>
      </trkpt>
      <trkpt lat="48.66405" lon="1.87307">
        <ele>173.6</ele>
        <time>2013-03-31T10:41:02.000+02:00</time>
      </trkpt>
      <trkpt lat="48.6641" lon="1.8732">
        <ele>173.4</ele>
        <time>2013-03-31T10:41:08.000+02:00</time>
      </trkpt>
      <trkpt lat="48.66415" lon="1.87332">
        <ele>173.4</ele>
        <time>2013-03-31T10:41:14.000+02:00</time>
      </trkpt>
      <trkpt lat="48.66419" lon="1.87346">
        <ele>173.3</ele>
        <time>2013-03-31T10:41:21.000+02:00</time>
      </trkpt>
      <trkpt lat="48.66424" lon="1.87359">
        <ele>174.6</ele>
        <time>2013-03-31T10:41:28.000+02:00</time>
      </trkpt>
      <trkpt lat="48.66429" lon="1.87373">
        <ele>174.5</ele>
        <time>2013-03-31T10:41:35.000+02:00</time>
      </trkpt>
      <trkpt lat="48.66434" lon="1.87387">
        <ele>174.2</ele>
        <time>2013-03-31T10:41:42.000+02:00</time>
      </trkpt>
      <trkpt lat="48.66439" lon="1.87399">
        <ele>173.2</ele>
        <time>2013-03-31T10:41:48.000+02:00</time>
      </trkpt>
      <trkpt lat="48.66443" lon="1.87412">
        <ele>171.8</ele>
        <time>2013-03-31T10:41:55.000+02:00</time>
      </trkpt>
      <trkpt lat="48.66448" lon="1.87425">
        <ele>170.8</ele>
        <time>2013-03-31T10:42:02.000+02:00</time>
      </trkpt>
      <trkpt lat="48.66454" lon="1.87437">
        <ele>170.5</ele>
        <time>2013-03-31T10:42:09.000+02:00</time>
      </trkpt>
      <trkpt lat="48.66461" lon="1.87446">
        <ele>170.9</ele>
        <time>2013-03-31T10:42:17.000+02:00</time>
      </trkpt>
      <trkpt lat="48.66468" lon="1.87448">
        <ele>173.7</ele>
        <time>2013-03-31T10:43:00.000+02:00</time>
      </trkpt>
      <trkpt lat="48.66477" lon="1.87443">
        <ele>175.3</ele>
        <time>2013-03-31T10:43:08.000+02:00</time>
      </trkpt>
      <trkpt lat="48.66486" lon="1.87439">
        <ele>176.9</ele>
        <time>2013-03-31T10:43:16.000+02:00</time>
      </trkpt>
      <trkpt lat="48.66495" lon="1.87435">
        <ele>177.2</ele>
        <time>2013-03-31T10:43:23.000+02:00</time>
      </trkpt>
      <trkpt lat="48.66504" lon="1.8743">
        <ele>177.8</ele>
        <time>2013-03-31T10:43:30.000+02:00</time>
      </trkpt>
      <trkpt lat="48.66513" lon="1.87426">
        <ele>177.7</ele>
        <time>2013-03-31T10:43:37.000+02:00</time>
      </trkpt>
      <trkpt lat="48.66523" lon="1.87421">
        <ele>178.7</ele>
        <time>2013-03-31T10:43:45.000+02:00</time>
      </trkpt>
      <trkpt lat="48.66531" lon="1.87416">
        <ele>180.3</ele>
        <time>2013-03-31T10:43:53.000+02:00</time>
      </trkpt>
      <trkpt lat="48.66539" lon="1.8741">
        <ele>181</ele>
        <time>2013-03-31T10:44:01.000+02:00</time>
      </trkpt>
      <trkpt lat="48.66548" lon="1.87403">
        <ele>182</ele>
        <time>2013-03-31T10:44:09.000+02:00</time>
      </trkpt>
      <trkpt lat="48.66557" lon="1.87399">
        <ele>183.1</ele>
        <time>2013-03-31T10:44:16.000+02:00</time>
      </trkpt>
      <trkpt lat="48.66566" lon="1.87397">
        <ele>184.3</ele>
        <time>2013-03-31T10:44:24.000+02:00</time>
      </trkpt>
      <trkpt lat="48.66574" lon="1.8739">
        <ele>185.4</ele>
        <time>2013-03-31T10:44:32.000+02:00</time>
      </trkpt>
      <trkpt lat="48.66583" lon="1.87384">
        <ele>185.4</ele>
        <time>2013-03-31T10:44:41.000+02:00</time>
      </trkpt>
      <trkpt lat="48.66593" lon="1.8738">
        <ele>184.1</ele>
        <time>2013-03-31T10:44:48.000+02:00</time>
      </trkpt>
      <trkpt lat="48.66601" lon="1.87373">
        <ele>182.9</ele>
        <time>2013-03-31T10:44:54.000+02:00</time>
      </trkpt>
      <trkpt lat="48.6661" lon="1.8737">
        <ele>184.2</ele>
        <time>2013-03-31T10:45:01.000+02:00</time>
      </trkpt>
      <trkpt lat="48.66619" lon="1.87367">
        <ele>185.5</ele>
        <time>2013-03-31T10:45:05.000+02:00</time>
      </trkpt>
      <trkpt lat="48.66629" lon="1.87365">
        <ele>185.2</ele>
        <time>2013-03-31T10:45:11.000+02:00</time>
      </trkpt>
      <trkpt lat="48.66638" lon="1.87359">
        <ele>186.6</ele>
        <time>2013-03-31T10:45:18.000+02:00</time>
      </trkpt>
      <trkpt lat="48.66648" lon="1.87354">
        <ele>187.6</ele>
        <time>2013-03-31T10:45:25.000+02:00</time>
      </trkpt>
      <trkpt lat="48.66657" lon="1.8735">
        <ele>188</ele>
        <time>2013-03-31T10:45:31.000+02:00</time>
      </trkpt>
      <trkpt lat="48.66666" lon="1.87346">
        <ele>188</ele>
        <time>2013-03-31T10:45:39.000+02:00</time>
      </trkpt>
      <trkpt lat="48.66676" lon="1.87342">
        <ele>187.4</ele>
        <time>2013-03-31T10:45:44.000+02:00</time>
      </trkpt>
      <trkpt lat="48.66685" lon="1.8734">
        <ele>187.4</ele>
        <time>2013-03-31T10:45:49.000+02:00</time>
      </trkpt>
      <trkpt lat="48.66694" lon="1.87335">
        <ele>188.6</ele>
        <time>2013-03-31T10:45:55.000+02:00</time>
      </trkpt>
      <trkpt lat="48.66703" lon="1.87331">
        <ele>187.8</ele>
        <time>2013-03-31T10:46:01.000+02:00</time>
      </trkpt>
      <trkpt lat="48.66713" lon="1.87325">
        <ele>185.3</ele>
        <time>2013-03-31T10:46:07.000+02:00</time>
      </trkpt>
      <trkpt lat="48.66722" lon="1.87321">
        <ele>185.3</ele>
        <time>2013-03-31T10:46:14.000+02:00</time>
      </trkpt>
      <trkpt lat="48.66731" lon="1.87317">
        <ele>187.4</ele>
        <time>2013-03-31T10:46:20.000+02:00</time>
      </trkpt>
      <trkpt lat="48.66741" lon="1.87312">
        <ele>186.9</ele>
        <time>2013-03-31T10:46:26.000+02:00</time>
      </trkpt>
      <trkpt lat="48.66749" lon="1.87309">
        <ele>189.9</ele>
        <time>2013-03-31T10:46:33.000+02:00</time>
      </trkpt>
      <trkpt lat="48.66758" lon="1.87304">
        <ele>189.3</ele>
        <time>2013-03-31T10:46:39.000+02:00</time>
      </trkpt>
      <trkpt lat="48.66768" lon="1.873">
        <ele>188.8</ele>
        <time>2013-03-31T10:46:45.000+02:00</time>
      </trkpt>
      <trkpt lat="48.66777" lon="1.87299">
        <ele>187.7</ele>
        <time>2013-03-31T10:46:54.000+02:00</time>
      </trkpt>
      <trkpt lat="48.66786" lon="1.87296">
        <ele>185.6</ele>
        <time>2013-03-31T10:46:59.000+02:00</time>
      </trkpt>
      <trkpt lat="48.66795" lon="1.8729">
        <ele>186.1</ele>
        <time>2013-03-31T10:47:06.000+02:00</time>
      </trkpt>
      <trkpt lat="48.66804" lon="1.87286">
        <ele>186.7</ele>
        <time>2013-03-31T10:47:13.000+02:00</time>
      </trkpt>
      <trkpt lat="48.66814" lon="1.87281">
        <ele>187.2</ele>
        <time>2013-03-31T10:47:20.000+02:00</time>
      </trkpt>
      <trkpt lat="48.66822" lon="1.87276">
        <ele>187.5</ele>
        <time>2013-03-31T10:47:27.000+02:00</time>
      </trkpt>
      <trkpt lat="48.66832" lon="1.8727">
        <ele>187.2</ele>
        <time>2013-03-31T10:47:35.000+02:00</time>
      </trkpt>
      <trkpt lat="48.66841" lon="1.87266">
        <ele>186.8</ele>
        <time>2013-03-31T10:47:41.000+02:00</time>
      </trkpt>
      <trkpt lat="48.66851" lon="1.87262">
        <ele>188.7</ele>
        <time>2013-03-31T10:47:49.000+02:00</time>
      </trkpt>
      <trkpt lat="48.6686" lon="1.87257">
        <ele>191.7</ele>
        <time>2013-03-31T10:47:56.000+02:00</time>
      </trkpt>
      <trkpt lat="48.66869" lon="1.87252">
        <ele>190.9</ele>
        <time>2013-03-31T10:48:02.000+02:00</time>
      </trkpt>
      <trkpt lat="48.66879" lon="1.87247">
        <ele>189.2</ele>
        <time>2013-03-31T10:48:08.000+02:00</time>
      </trkpt>
      <trkpt lat="48.66887" lon="1.87242">
        <ele>187.2</ele>
        <time>2013-03-31T10:48:14.000+02:00</time>
      </trkpt>
      <trkpt lat="48.66896" lon="1.87238">
        <ele>187.8</ele>
        <time>2013-03-31T10:48:20.000+02:00</time>
      </trkpt>
      <trkpt lat="48.66906" lon="1.87234">
        <ele>187</ele>
        <time>2013-03-31T10:48:26.000+02:00</time>
      </trkpt>
      <trkpt lat="48.66915" lon="1.87229">
        <ele>186.9</ele>
        <time>2013-03-31T10:48:34.000+02:00</time>
      </trkpt>
      <trkpt lat="48.66924" lon="1.87228">
        <ele>187.3</ele>
        <time>2013-03-31T10:48:42.000+02:00</time>
      </trkpt>
      <trkpt lat="48.66933" lon="1.87222">
        <ele>185.6</ele>
        <time>2013-03-31T10:48:49.000+02:00</time>
      </trkpt>
      <trkpt lat="48.66942" lon="1.87224">
        <ele>185.6</ele>
        <time>2013-03-31T10:48:56.000+02:00</time>
      </trkpt>
      <trkpt lat="48.66951" lon="1.87223">
        <ele>183.6</ele>
        <time>2013-03-31T10:49:08.000+02:00</time>
      </trkpt>
      <trkpt lat="48.66952" lon="1.87229">
        <ele>182.9</ele>
        <time>2013-03-31T10:49:27.000+02:00</time>
      </trkpt>
      <trkpt lat="48.66959" lon="1.87223">
        <ele>176.8</ele>
        <time>2013-03-31T10:49:38.000+02:00</time>
      </trkpt>
      <trkpt lat="48.66966" lon="1.8722">
        <ele>167.1</ele>
        <time>2013-03-31T10:50:01.000+02:00</time>
      </trkpt>
      <trkpt lat="48.66971" lon="1.87219">
        <ele>175.2</ele>
        <time>2013-03-31T10:50:22.000+02:00</time>
      </trkpt>
      <trkpt lat="48.66979" lon="1.87213">
        <ele>179.1</ele>
        <time>2013-03-31T10:50:31.000+02:00</time>
      </trkpt>
      <trkpt lat="48.66988" lon="1.87206">
        <ele>178.6</ele>
        <time>2013-03-31T10:50:38.000+02:00</time>
      </trkpt>
      <trkpt lat="48.66996" lon="1.87199">
        <ele>179.8</ele>
        <time>2013-03-31T10:50:47.000+02:00</time>
      </trkpt>
      <trkpt lat="48.67003" lon="1.87191">
        <ele>177.1</ele>
        <time>2013-03-31T10:50:53.000+02:00</time>
      </trkpt>
      <trkpt lat="48.67012" lon="1.87186">
        <ele>177.3</ele>
        <time>2013-03-31T10:51:00.000+02:00</time>
      </trkpt>
      <trkpt lat="48.6702" lon="1.8718">
        <ele>178.1</ele>
        <time>2013-03-31T10:51:06.000+02:00</time>
      </trkpt>
      <trkpt lat="48.6703" lon="1.87173">
        <ele>177.5</ele>
        <time>2013-03-31T10:51:13.000+02:00</time>
      </trkpt>
      <trkpt lat="48.67038" lon="1.87167">
        <ele>178.8</ele>
        <time>2013-03-31T10:51:20.000+02:00</time>
      </trkpt>
      <trkpt lat="48.67047" lon="1.8716">
        <ele>175.8</ele>
        <time>2013-03-31T10:51:26.000+02:00</time>
      </trkpt>
      <trkpt lat="48.67056" lon="1.87152">
        <ele>175.9</ele>
        <time>2013-03-31T10:51:33.000+02:00</time>
      </trkpt>
      <trkpt lat="48.67065" lon="1.87147">
        <ele>175.4</ele>
        <time>2013-03-31T10:51:39.000+02:00</time>
      </trkpt>
      <trkpt lat="48.67075" lon="1.87142">
        <ele>176.7</ele>
        <time>2013-03-31T10:51:46.000+02:00</time>
      </trkpt>
      <trkpt lat="48.67083" lon="1.87135">
        <ele>177.3</ele>
        <time>2013-03-31T10:51:53.000+02:00</time>
      </trkpt>
      <trkpt lat="48.67092" lon="1.87129">
        <ele>180.3</ele>
        <time>2013-03-31T10:52:02.000+02:00</time>
      </trkpt>
      <trkpt lat="48.67101" lon="1.87125">
        <ele>182.7</ele>
        <time>2013-03-31T10:52:09.000+02:00</time>
      </trkpt>
      <trkpt lat="48.6711" lon="1.87118">
        <ele>183.4</ele>
        <time>2013-03-31T10:52:16.000+02:00</time>
      </trkpt>
      <trkpt lat="48.67119" lon="1.87113">
        <ele>183</ele>
        <time>2013-03-31T10:52:23.000+02:00</time>
      </trkpt>
      <trkpt lat="48.67128" lon="1.87107">
        <ele>183.6</ele>
        <time>2013-03-31T10:52:31.000+02:00</time>
      </trkpt>
      <trkpt lat="48.67137" lon="1.871">
        <ele>181.2</ele>
        <time>2013-03-31T10:52:39.000+02:00</time>
      </trkpt>
      <trkpt lat="48.67146" lon="1.87096">
        <ele>177.7</ele>
        <time>2013-03-31T10:52:44.000+02:00</time>
      </trkpt>
      <trkpt lat="48.67154" lon="1.8709">
        <ele>177.2</ele>
        <time>2013-03-31T10:52:49.000+02:00</time>
      </trkpt>
      <trkpt lat="48.67162" lon="1.87083">
        <ele>179.1</ele>
        <time>2013-03-31T10:52:55.000+02:00</time>
      </trkpt>
      <trkpt lat="48.6717" lon="1.87077">
        <ele>179.4</ele>
        <time>2013-03-31T10:53:00.000+02:00</time>
      </trkpt>
      <trkpt lat="48.67178" lon="1.87073">
        <ele>181.4</ele>
        <time>2013-03-31T10:53:06.000+02:00</time>
      </trkpt>
      <trkpt lat="48.67187" lon="1.87069">
        <ele>182.2</ele>
        <time>2013-03-31T10:53:12.000+02:00</time>
      </trkpt>
      <trkpt lat="48.67197" lon="1.87064">
        <ele>180</ele>
        <time>2013-03-31T10:53:18.000+02:00</time>
      </trkpt>
      <trkpt lat="48.67206" lon="1.87061">
        <ele>179</ele>
        <time>2013-03-31T10:53:24.000+02:00</time>
      </trkpt>
      <trkpt lat="48.67215" lon="1.87055">
        <ele>178.3</ele>
        <time>2013-03-31T10:53:31.000+02:00</time>
      </trkpt>
      <trkpt lat="48.67224" lon="1.87047">
        <ele>176.6</ele>
        <time>2013-03-31T10:53:38.000+02:00</time>
      </trkpt>
      <trkpt lat="48.67232" lon="1.87041">
        <ele>175.6</ele>
        <time>2013-03-31T10:53:44.000+02:00</time>
      </trkpt>
      <trkpt lat="48.6724" lon="1.87034">
        <ele>176.6</ele>
        <time>2013-03-31T10:53:50.000+02:00</time>
      </trkpt>
      <trkpt lat="48.67249" lon="1.87027">
        <ele>175</ele>
        <time>2013-03-31T10:53:57.000+02:00</time>
      </trkpt>
      <trkpt lat="48.67258" lon="1.87021">
        <ele>176.3</ele>
        <time>2013-03-31T10:54:03.000+02:00</time>
      </trkpt>
      <trkpt lat="48.67267" lon="1.87018">
        <ele>177.4</ele>
        <time>2013-03-31T10:54:10.000+02:00</time>
      </trkpt>
      <trkpt lat="48.67277" lon="1.87019">
        <ele>176.8</ele>
        <time>2013-03-31T10:54:17.000+02:00</time>
      </trkpt>
      <trkpt lat="48.67287" lon="1.87021">
        <ele>176.8</ele>
        <time>2013-03-31T10:54:24.000+02:00</time>
      </trkpt>
      <trkpt lat="48.67296" lon="1.87026">
        <ele>178.8</ele>
        <time>2013-03-31T10:54:32.000+02:00</time>
      </trkpt>
      <trkpt lat="48.67306" lon="1.87028">
        <ele>177.3</ele>
        <time>2013-03-31T10:54:39.000+02:00</time>
      </trkpt>
      <trkpt lat="48.67315" lon="1.8703">
        <ele>180.1</ele>
        <time>2013-03-31T10:54:46.000+02:00</time>
      </trkpt>
      <trkpt lat="48.67324" lon="1.87033">
        <ele>178.1</ele>
        <time>2013-03-31T10:54:53.000+02:00</time>
      </trkpt>
      <trkpt lat="48.67332" lon="1.87037">
        <ele>175.6</ele>
        <time>2013-03-31T10:55:01.000+02:00</time>
      </trkpt>
      <trkpt lat="48.67341" lon="1.8704">
        <ele>174.6</ele>
        <time>2013-03-31T10:55:10.000+02:00</time>
      </trkpt>
      <trkpt lat="48.6735" lon="1.87044">
        <ele>177.6</ele>
        <time>2013-03-31T10:55:19.000+02:00</time>
      </trkpt>
      <trkpt lat="48.6736" lon="1.87044">
        <ele>179.9</ele>
        <time>2013-03-31T10:55:26.000+02:00</time>
      </trkpt>
      <trkpt lat="48.6737" lon="1.87045">
        <ele>179.9</ele>
        <time>2013-03-31T10:55:32.000+02:00</time>
      </trkpt>
      <trkpt lat="48.67378" lon="1.87048">
        <ele>178.3</ele>
        <time>2013-03-31T10:55:39.000+02:00</time>
      </trkpt>
      <trkpt lat="48.67388" lon="1.87052">
        <ele>179.7</ele>
        <time>2013-03-31T10:55:47.000+02:00</time>
      </trkpt>
      <trkpt lat="48.67397" lon="1.87054">
        <ele>180.9</ele>
        <time>2013-03-31T10:55:53.000+02:00</time>
      </trkpt>
      <trkpt lat="48.67406" lon="1.87057">
        <ele>182</ele>
        <time>2013-03-31T10:55:58.000+02:00</time>
      </trkpt>
      <trkpt lat="48.67416" lon="1.87062">
        <ele>182.9</ele>
        <time>2013-03-31T10:56:05.000+02:00</time>
      </trkpt>
      <trkpt lat="48.67426" lon="1.87065">
        <ele>182.8</ele>
        <time>2013-03-31T10:56:11.000+02:00</time>
      </trkpt>
      <trkpt lat="48.67436" lon="1.87069">
        <ele>180.7</ele>
        <time>2013-03-31T10:56:17.000+02:00</time>
      </trkpt>
      <trkpt lat="48.67445" lon="1.87074">
        <ele>179.6</ele>
        <time>2013-03-31T10:56:23.000+02:00</time>
      </trkpt>
      <trkpt lat="48.67454" lon="1.87078">
        <ele>181.6</ele>
        <time>2013-03-31T10:56:29.000+02:00</time>
      </trkpt>
      <trkpt lat="48.67462" lon="1.87083">
        <ele>183.2</ele>
        <time>2013-03-31T10:56:36.000+02:00</time>
      </trkpt>
      <trkpt lat="48.67466" lon="1.87071">
        <ele>187.6</ele>
        <time>2013-03-31T10:56:49.000+02:00</time>
      </trkpt>
      <trkpt lat="48.67473" lon="1.87064">
        <ele>185.8</ele>
        <time>2013-03-31T10:56:57.000+02:00</time>
      </trkpt>
      <trkpt lat="48.67482" lon="1.87067">
        <ele>183</ele>
        <time>2013-03-31T10:57:04.000+02:00</time>
      </trkpt>
      <trkpt lat="48.67492" lon="1.87069">
        <ele>180.6</ele>
        <time>2013-03-31T10:57:12.000+02:00</time>
      </trkpt>
      <trkpt lat="48.67502" lon="1.87072">
        <ele>178.3</ele>
        <time>2013-03-31T10:57:18.000+02:00</time>
      </trkpt>
      <trkpt lat="48.67511" lon="1.87075">
        <ele>178.4</ele>
        <time>2013-03-31T10:57:24.000+02:00</time>
      </trkpt>
      <trkpt lat="48.6752" lon="1.87079">
        <ele>176.1</ele>
        <time>2013-03-31T10:57:31.000+02:00</time>
      </trkpt>
      <trkpt lat="48.67529" lon="1.87082">
        <ele>175.9</ele>
        <time>2013-03-31T10:57:38.000+02:00</time>
      </trkpt>
      <trkpt lat="48.67538" lon="1.87085">
        <ele>175.5</ele>
        <time>2013-03-31T10:57:44.000+02:00</time>
      </trkpt>
      <trkpt lat="48.67547" lon="1.87088">
        <ele>174.7</ele>
        <time>2013-03-31T10:57:50.000+02:00</time>
      </trkpt>
      <trkpt lat="48.67556" lon="1.87091">
        <ele>175</ele>
        <time>2013-03-31T10:57:56.000+02:00</time>
      </trkpt>
      <trkpt lat="48.67566" lon="1.87095">
        <ele>177.3</ele>
        <time>2013-03-31T10:58:02.000+02:00</time>
      </trkpt>
      <trkpt lat="48.67575" lon="1.87098">
        <ele>175.3</ele>
        <time>2013-03-31T10:58:08.000+02:00</time>
      </trkpt>
      <trkpt lat="48.67583" lon="1.87102">
        <ele>178.6</ele>
        <time>2013-03-31T10:58:14.000+02:00</time>
      </trkpt>
      <trkpt lat="48.67594" lon="1.87106">
        <ele>178.8</ele>
        <time>2013-03-31T10:58:20.000+02:00</time>
      </trkpt>
      <trkpt lat="48.67603" lon="1.87109">
        <ele>179.1</ele>
        <time>2013-03-31T10:58:26.000+02:00</time>
      </trkpt>
      <trkpt lat="48.67613" lon="1.87112">
        <ele>178.1</ele>
        <time>2013-03-31T10:58:32.000+02:00</time>
      </trkpt>
      <trkpt lat="48.67622" lon="1.87116">
        <ele>183.1</ele>
        <time>2013-03-31T10:58:40.000+02:00</time>
      </trkpt>
      <trkpt lat="48.67631" lon="1.87116">
        <ele>180.7</ele>
        <time>2013-03-31T10:58:47.000+02:00</time>
      </trkpt>
      <trkpt lat="48.67641" lon="1.87118">
        <ele>179.7</ele>
        <time>2013-03-31T10:58:53.000+02:00</time>
      </trkpt>
      <trkpt lat="48.6765" lon="1.87121">
        <ele>181.1</ele>
        <time>2013-03-31T10:59:00.000+02:00</time>
      </trkpt>
      <trkpt lat="48.6766" lon="1.87124">
        <ele>179.1</ele>
        <time>2013-03-31T10:59:07.000+02:00</time>
      </trkpt>
      <trkpt lat="48.6767" lon="1.87125">
        <ele>177.9</ele>
        <time>2013-03-31T10:59:13.000+02:00</time>
      </trkpt>
      <trkpt lat="48.67679" lon="1.87124">
        <ele>175.2</ele>
        <time>2013-03-31T10:59:18.000+02:00</time>
      </trkpt>
      <trkpt lat="48.67689" lon="1.87124">
        <ele>174.7</ele>
        <time>2013-03-31T10:59:24.000+02:00</time>
      </trkpt>
      <trkpt lat="48.677" lon="1.87122">
        <ele>174.7</ele>
        <time>2013-03-31T10:59:31.000+02:00</time>
      </trkpt>
      <trkpt lat="48.6771" lon="1.87119">
        <ele>174.3</ele>
        <time>2013-03-31T10:59:38.000+02:00</time>
      </trkpt>
      <trkpt lat="48.67719" lon="1.87116">
        <ele>174.1</ele>
        <time>2013-03-31T10:59:44.000+02:00</time>
      </trkpt>
      <trkpt lat="48.67729" lon="1.87115">
        <ele>173.7</ele>
        <time>2013-03-31T10:59:51.000+02:00</time>
      </trkpt>
      <trkpt lat="48.67737" lon="1.87116">
        <ele>173.4</ele>
        <time>2013-03-31T10:59:57.000+02:00</time>
      </trkpt>
      <trkpt lat="48.6774" lon="1.8713">
        <ele>173.3</ele>
        <time>2013-03-31T11:00:05.000+02:00</time>
      </trkpt>
      <trkpt lat="48.6774" lon="1.87145">
        <ele>173.5</ele>
        <time>2013-03-31T11:00:15.000+02:00</time>
      </trkpt>
      <trkpt lat="48.67744" lon="1.87142">
        <ele>172.6</ele>
        <time>2013-03-31T11:00:28.000+02:00</time>
      </trkpt>
      <trkpt lat="48.67753" lon="1.87143">
        <ele>173.2</ele>
        <time>2013-03-31T11:00:39.000+02:00</time>
      </trkpt>
      <trkpt lat="48.67762" lon="1.87139">
        <ele>171.8</ele>
        <time>2013-03-31T11:00:47.000+02:00</time>
      </trkpt>
      <trkpt lat="48.6777" lon="1.87136">
        <ele>170</ele>
        <time>2013-03-31T11:00:54.000+02:00</time>
      </trkpt>
      <trkpt lat="48.6778" lon="1.87135">
        <ele>169.2</ele>
        <time>2013-03-31T11:01:01.000+02:00</time>
      </trkpt>
      <trkpt lat="48.67789" lon="1.87132">
        <ele>169.9</ele>
        <time>2013-03-31T11:01:08.000+02:00</time>
      </trkpt>
      <trkpt lat="48.67799" lon="1.87131">
        <ele>171.2</ele>
        <time>2013-03-31T11:01:16.000+02:00</time>
      </trkpt>
      <trkpt lat="48.67808" lon="1.8713">
        <ele>170.5</ele>
        <time>2013-03-31T11:01:23.000+02:00</time>
      </trkpt>
      <trkpt lat="48.67818" lon="1.87127">
        <ele>171.6</ele>
        <time>2013-03-31T11:01:32.000+02:00</time>
      </trkpt>
      <trkpt lat="48.67828" lon="1.87125">
        <ele>172.9</ele>
        <time>2013-03-31T11:01:40.000+02:00</time>
      </trkpt>
      <trkpt lat="48.67838" lon="1.87124">
        <ele>174.5</ele>
        <time>2013-03-31T11:01:49.000+02:00</time>
      </trkpt>
      <trkpt lat="48.67847" lon="1.87123">
        <ele>176.4</ele>
        <time>2013-03-31T11:01:56.000+02:00</time>
      </trkpt>
      <trkpt lat="48.67857" lon="1.87122">
        <ele>177.6</ele>
        <time>2013-03-31T11:02:03.000+02:00</time>
      </trkpt>
      <trkpt lat="48.67868" lon="1.87122">
        <ele>177.1</ele>
        <time>2013-03-31T11:02:10.000+02:00</time>
      </trkpt>
      <trkpt lat="48.67878" lon="1.8712">
        <ele>178.2</ele>
        <time>2013-03-31T11:02:17.000+02:00</time>
      </trkpt>
      <trkpt lat="48.67888" lon="1.8712">
        <ele>174.9</ele>
        <time>2013-03-31T11:02:24.000+02:00</time>
      </trkpt>
      <trkpt lat="48.67898" lon="1.87118">
        <ele>174.2</ele>
        <time>2013-03-31T11:02:31.000+02:00</time>
      </trkpt>
      <trkpt lat="48.67907" lon="1.87117">
        <ele>173.9</ele>
        <time>2013-03-31T11:02:37.000+02:00</time>
      </trkpt>
      <trkpt lat="48.67917" lon="1.87115">
        <ele>175.6</ele>
        <time>2013-03-31T11:02:43.000+02:00</time>
      </trkpt>
      <trkpt lat="48.67926" lon="1.87113">
        <ele>174.4</ele>
        <time>2013-03-31T11:02:49.000+02:00</time>
      </trkpt>
      <trkpt lat="48.67935" lon="1.87112">
        <ele>173.6</ele>
        <time>2013-03-31T11:02:55.000+02:00</time>
      </trkpt>
      <trkpt lat="48.67945" lon="1.87109">
        <ele>173.2</ele>
        <time>2013-03-31T11:03:03.000+02:00</time>
      </trkpt>
      <trkpt lat="48.67954" lon="1.87106">
        <ele>174</ele>
        <time>2013-03-31T11:03:10.000+02:00</time>
      </trkpt>
      <trkpt lat="48.67963" lon="1.87104">
        <ele>176</ele>
        <time>2013-03-31T11:03:17.000+02:00</time>
      </trkpt>
      <trkpt lat="48.67972" lon="1.87102">
        <ele>175.5</ele>
        <time>2013-03-31T11:03:23.000+02:00</time>
      </trkpt>
      <trkpt lat="48.67982" lon="1.871">
        <ele>174.2</ele>
        <time>2013-03-31T11:03:29.000+02:00</time>
      </trkpt>
      <trkpt lat="48.67991" lon="1.87095">
        <ele>174</ele>
        <time>2013-03-31T11:03:37.000+02:00</time>
      </trkpt>
      <trkpt lat="48.68" lon="1.87092">
        <ele>174.8</ele>
        <time>2013-03-31T11:03:46.000+02:00</time>
      </trkpt>
      <trkpt lat="48.6801" lon="1.87088">
        <ele>175.6</ele>
        <time>2013-03-31T11:03:53.000+02:00</time>
      </trkpt>
      <trkpt lat="48.68019" lon="1.87087">
        <ele>175.4</ele>
        <time>2013-03-31T11:04:01.000+02:00</time>
      </trkpt>
      <trkpt lat="48.68029" lon="1.87088">
        <ele>176.1</ele>
        <time>2013-03-31T11:04:08.000+02:00</time>
      </trkpt>
      <trkpt lat="48.68039" lon="1.87086">
        <ele>176.1</ele>
        <time>2013-03-31T11:04:16.000+02:00</time>
      </trkpt>
      <trkpt lat="48.68048" lon="1.87085">
        <ele>181.3</ele>
        <time>2013-03-31T11:04:26.000+02:00</time>
      </trkpt>
      <trkpt lat="48.68056" lon="1.87078">
        <ele>179.7</ele>
        <time>2013-03-31T11:04:34.000+02:00</time>
      </trkpt>
      <trkpt lat="48.68065" lon="1.87073">
        <ele>181</ele>
        <time>2013-03-31T11:04:43.000+02:00</time>
      </trkpt>
      <trkpt lat="48.68072" lon="1.87068">
        <ele>182.4</ele>
        <time>2013-03-31T11:05:10.000+02:00</time>
      </trkpt>
      <trkpt lat="48.68079" lon="1.87069">
        <ele>177.9</ele>
        <time>2013-03-31T11:05:28.000+02:00</time>
      </trkpt>
      <trkpt lat="48.68079" lon="1.87065">
        <ele>173.3</ele>
        <time>2013-03-31T11:05:50.000+02:00</time>
      </trkpt>
      <trkpt lat="48.68087" lon="1.87062">
        <ele>179.7</ele>
        <time>2013-03-31T11:06:05.000+02:00</time>
      </trkpt>
      <trkpt lat="48.68097" lon="1.87058">
        <ele>178.6</ele>
        <time>2013-03-31T11:06:13.000+02:00</time>
      </trkpt>
      <trkpt lat="48.68106" lon="1.87055">
        <ele>177.7</ele>
        <time>2013-03-31T11:06:21.000+02:00</time>
      </trkpt>
      <trkpt lat="48.68115" lon="1.87051">
        <ele>178.8</ele>
        <time>2013-03-31T11:06:29.000+02:00</time>
      </trkpt>
      <trkpt lat="48.68124" lon="1.87049">
        <ele>180.4</ele>
        <time>2013-03-31T11:06:38.000+02:00</time>
      </trkpt>
      <trkpt lat="48.68132" lon="1.87043">
        <ele>178.4</ele>
        <time>2013-03-31T11:06:45.000+02:00</time>
      </trkpt>
      <trkpt lat="48.68141" lon="1.87042">
        <ele>177.7</ele>
        <time>2013-03-31T11:06:51.000+02:00</time>
      </trkpt>
      <trkpt lat="48.68151" lon="1.87039">
        <ele>176.8</ele>
        <time>2013-03-31T11:06:59.000+02:00</time>
      </trkpt>
      <trkpt lat="48.6816" lon="1.87038">
        <ele>177.8</ele>
        <time>2013-03-31T11:07:05.000+02:00</time>
      </trkpt>
      <trkpt lat="48.68168" lon="1.87033">
        <ele>178.7</ele>
        <time>2013-03-31T11:07:13.000+02:00</time>
      </trkpt>
      <trkpt lat="48.68178" lon="1.87028">
        <ele>181.3</ele>
        <time>2013-03-31T11:07:22.000+02:00</time>
      </trkpt>
      <trkpt lat="48.68188" lon="1.87025">
        <ele>179.3</ele>
        <time>2013-03-31T11:07:29.000+02:00</time>
      </trkpt>
      <trkpt lat="48.68197" lon="1.87021">
        <ele>178.9</ele>
        <time>2013-03-31T11:07:36.000+02:00</time>
      </trkpt>
      <trkpt lat="48.68206" lon="1.87018">
        <ele>178.5</ele>
        <time>2013-03-31T11:07:43.000+02:00</time>
      </trkpt>
      <trkpt lat="48.68215" lon="1.87016">
        <ele>177</ele>
        <time>2013-03-31T11:07:50.000+02:00</time>
      </trkpt>
      <trkpt lat="48.68224" lon="1.87011">
        <ele>177.4</ele>
        <time>2013-03-31T11:07:58.000+02:00</time>
      </trkpt>
      <trkpt lat="48.68233" lon="1.87006">
        <ele>178.8</ele>
        <time>2013-03-31T11:08:07.000+02:00</time>
      </trkpt>
      <trkpt lat="48.68242" lon="1.87004">
        <ele>181.1</ele>
        <time>2013-03-31T11:08:15.000+02:00</time>
      </trkpt>
      <trkpt lat="48.68252" lon="1.87">
        <ele>179.9</ele>
        <time>2013-03-31T11:08:22.000+02:00</time>
      </trkpt>
      <trkpt lat="48.68261" lon="1.86998">
        <ele>181.7</ele>
        <time>2013-03-31T11:08:28.000+02:00</time>
      </trkpt>
      <trkpt lat="48.68271" lon="1.86996">
        <ele>180.2</ele>
        <time>2013-03-31T11:08:35.000+02:00</time>
      </trkpt>
      <trkpt lat="48.68281" lon="1.86993">
        <ele>178.6</ele>
        <time>2013-03-31T11:08:42.000+02:00</time>
      </trkpt>
      <trkpt lat="48.68291" lon="1.86989">
        <ele>178.8</ele>
        <time>2013-03-31T11:08:50.000+02:00</time>
      </trkpt>
      <trkpt lat="48.683" lon="1.86986">
        <ele>178</ele>
        <time>2013-03-31T11:08:55.000+02:00</time>
      </trkpt>
      <trkpt lat="48.6831" lon="1.86984">
        <ele>177.5</ele>
        <time>2013-03-31T11:09:01.000+02:00</time>
      </trkpt>
      <trkpt lat="48.68319" lon="1.86981">
        <ele>178.4</ele>
        <time>2013-03-31T11:09:09.000+02:00</time>
      </trkpt>
      <trkpt lat="48.68329" lon="1.86981">
        <ele>178.2</ele>
        <time>2013-03-31T11:09:15.000+02:00</time>
      </trkpt>
      <trkpt lat="48.68339" lon="1.86979">
        <ele>181.8</ele>
        <time>2013-03-31T11:09:24.000+02:00</time>
      </trkpt>
      <trkpt lat="48.68348" lon="1.86977">
        <ele>180.6</ele>
        <time>2013-03-31T11:09:31.000+02:00</time>
      </trkpt>
      <trkpt lat="48.68358" lon="1.86974">
        <ele>182.2</ele>
        <time>2013-03-31T11:09:38.000+02:00</time>
      </trkpt>
      <trkpt lat="48.68368" lon="1.86971">
        <ele>184.9</ele>
        <time>2013-03-31T11:09:47.000+02:00</time>
      </trkpt>
      <trkpt lat="48.68377" lon="1.86966">
        <ele>180.6</ele>
        <time>2013-03-31T11:09:52.000+02:00</time>
      </trkpt>
      <trkpt lat="48.68386" lon="1.86961">
        <ele>177.7</ele>
        <time>2013-03-31T11:09:57.000+02:00</time>
      </trkpt>
      <trkpt lat="48.68396" lon="1.86957">
        <ele>178.2</ele>
        <time>2013-03-31T11:10:04.000+02:00</time>
      </trkpt>
      <trkpt lat="48.68406" lon="1.86955">
        <ele>178.2</ele>
        <time>2013-03-31T11:10:11.000+02:00</time>
      </trkpt>
      <trkpt lat="48.68416" lon="1.86954">
        <ele>178.8</ele>
        <time>2013-03-31T11:10:16.000+02:00</time>
      </trkpt>
      <trkpt lat="48.68425" lon="1.8695">
        <ele>177.8</ele>
        <time>2013-03-31T11:10:22.000+02:00</time>
      </trkpt>
      <trkpt lat="48.68435" lon="1.86951">
        <ele>177.2</ele>
        <time>2013-03-31T11:10:29.000+02:00</time>
      </trkpt>
      <trkpt lat="48.68444" lon="1.86947">
        <ele>176.2</ele>
        <time>2013-03-31T11:10:36.000+02:00</time>
      </trkpt>
      <trkpt lat="48.68453" lon="1.86943">
        <ele>173.3</ele>
        <time>2013-03-31T11:10:42.000+02:00</time>
      </trkpt>
      <trkpt lat="48.68462" lon="1.86936">
        <ele>176.3</ele>
        <time>2013-03-31T11:10:51.000+02:00</time>
      </trkpt>
      <trkpt lat="48.68471" lon="1.86934">
        <ele>174.7</ele>
        <time>2013-03-31T11:10:56.000+02:00</time>
      </trkpt>
      <trkpt lat="48.6848" lon="1.86929">
        <ele>177.6</ele>
        <time>2013-03-31T11:11:05.000+02:00</time>
      </trkpt>
      <trkpt lat="48.68489" lon="1.86929">
        <ele>180.7</ele>
        <time>2013-03-31T11:11:11.000+02:00</time>
      </trkpt>
      <trkpt lat="48.685" lon="1.86925">
        <ele>178.9</ele>
        <time>2013-03-31T11:11:17.000+02:00</time>
      </trkpt>
      <trkpt lat="48.6851" lon="1.86922">
        <ele>178</ele>
        <time>2013-03-31T11:11:23.000+02:00</time>
      </trkpt>
      <trkpt lat="48.6852" lon="1.86917">
        <ele>174.5</ele>
        <time>2013-03-31T11:11:30.000+02:00</time>
      </trkpt>
      <trkpt lat="48.68529" lon="1.86914">
        <ele>175.1</ele>
        <time>2013-03-31T11:11:38.000+02:00</time>
      </trkpt>
      <trkpt lat="48.68537" lon="1.86911">
        <ele>177.5</ele>
        <time>2013-03-31T11:11:45.000+02:00</time>
      </trkpt>
      <trkpt lat="48.68546" lon="1.86909">
        <ele>183</ele>
        <time>2013-03-31T11:11:53.000+02:00</time>
      </trkpt>
      <trkpt lat="48.68556" lon="1.86907">
        <ele>184</ele>
        <time>2013-03-31T11:11:59.000+02:00</time>
      </trkpt>
      <trkpt lat="48.68565" lon="1.86906">
        <ele>178.7</ele>
        <time>2013-03-31T11:12:05.000+02:00</time>
      </trkpt>
      <trkpt lat="48.68573" lon="1.86899">
        <ele>181.1</ele>
        <time>2013-03-31T11:12:15.000+02:00</time>
      </trkpt>
      <trkpt lat="48.68584" lon="1.86898">
        <ele>181.9</ele>
        <time>2013-03-31T11:12:21.000+02:00</time>
      </trkpt>
      <trkpt lat="48.68593" lon="1.86894">
        <ele>181.1</ele>
        <time>2013-03-31T11:12:28.000+02:00</time>
      </trkpt>
      <trkpt lat="48.68603" lon="1.8689">
        <ele>180.7</ele>
        <time>2013-03-31T11:12:34.000+02:00</time>
      </trkpt>
      <trkpt lat="48.68612" lon="1.86886">
        <ele>180</ele>
        <time>2013-03-31T11:12:40.000+02:00</time>
      </trkpt>
      <trkpt lat="48.68622" lon="1.86882">
        <ele>178.4</ele>
        <time>2013-03-31T11:12:46.000+02:00</time>
      </trkpt>
      <trkpt lat="48.68632" lon="1.86879">
        <ele>178.2</ele>
        <time>2013-03-31T11:12:53.000+02:00</time>
      </trkpt>
      <trkpt lat="48.68641" lon="1.86878">
        <ele>175.9</ele>
        <time>2013-03-31T11:12:58.000+02:00</time>
      </trkpt>
      <trkpt lat="48.68651" lon="1.86877">
        <ele>175.8</ele>
        <time>2013-03-31T11:13:06.000+02:00</time>
      </trkpt>
      <trkpt lat="48.6866" lon="1.86873">
        <ele>173.4</ele>
        <time>2013-03-31T11:13:13.000+02:00</time>
      </trkpt>
      <trkpt lat="48.68668" lon="1.86866">
        <ele>175.2</ele>
        <time>2013-03-31T11:13:23.000+02:00</time>
      </trkpt>
      <trkpt lat="48.68675" lon="1.86858">
        <ele>174.9</ele>
        <time>2013-03-31T11:13:30.000+02:00</time>
      </trkpt>
      <trkpt lat="48.68685" lon="1.86859">
        <ele>172.9</ele>
        <time>2013-03-31T11:13:51.000+02:00</time>
      </trkpt>
      <trkpt lat="48.68694" lon="1.86857">
        <ele>172.9</ele>
        <time>2013-03-31T11:13:59.000+02:00</time>
      </trkpt>
      <trkpt lat="48.68704" lon="1.8686">
        <ele>173.8</ele>
        <time>2013-03-31T11:14:06.000+02:00</time>
      </trkpt>
      <trkpt lat="48.68713" lon="1.86857">
        <ele>175</ele>
        <time>2013-03-31T11:14:14.000+02:00</time>
      </trkpt>
      <trkpt lat="48.68723" lon="1.86854">
        <ele>174.1</ele>
        <time>2013-03-31T11:14:21.000+02:00</time>
      </trkpt>
      <trkpt lat="48.68733" lon="1.86852">
        <ele>175</ele>
        <time>2013-03-31T11:14:30.000+02:00</time>
      </trkpt>
      <trkpt lat="48.68741" lon="1.86847">
        <ele>175.8</ele>
        <time>2013-03-31T11:14:38.000+02:00</time>
      </trkpt>
      <trkpt lat="48.68751" lon="1.86844">
        <ele>178</ele>
        <time>2013-03-31T11:14:45.000+02:00</time>
      </trkpt>
      <trkpt lat="48.68761" lon="1.86841">
        <ele>179.8</ele>
        <time>2013-03-31T11:14:52.000+02:00</time>
      </trkpt>
      <trkpt lat="48.6877" lon="1.86838">
        <ele>179.2</ele>
        <time>2013-03-31T11:14:59.000+02:00</time>
      </trkpt>
      <trkpt lat="48.6878" lon="1.86835">
        <ele>179.1</ele>
        <time>2013-03-31T11:15:04.000+02:00</time>
      </trkpt>
      <trkpt lat="48.68789" lon="1.86831">
        <ele>179.4</ele>
        <time>2013-03-31T11:15:12.000+02:00</time>
      </trkpt>
      <trkpt lat="48.68799" lon="1.8683">
        <ele>179.9</ele>
        <time>2013-03-31T11:15:20.000+02:00</time>
      </trkpt>
      <trkpt lat="48.68808" lon="1.86828">
        <ele>179.7</ele>
        <time>2013-03-31T11:15:26.000+02:00</time>
      </trkpt>
      <trkpt lat="48.68818" lon="1.86825">
        <ele>179.6</ele>
        <time>2013-03-31T11:15:32.000+02:00</time>
      </trkpt>
      <trkpt lat="48.68827" lon="1.86821">
        <ele>179.8</ele>
        <time>2013-03-31T11:15:38.000+02:00</time>
      </trkpt>
      <trkpt lat="48.68836" lon="1.86816">
        <ele>179.2</ele>
        <time>2013-03-31T11:15:44.000+02:00</time>
      </trkpt>
      <trkpt lat="48.68845" lon="1.8681">
        <ele>179.4</ele>
        <time>2013-03-31T11:15:52.000+02:00</time>
      </trkpt>
      <trkpt lat="48.68854" lon="1.86808">
        <ele>179</ele>
        <time>2013-03-31T11:15:58.000+02:00</time>
      </trkpt>
      <trkpt lat="48.68864" lon="1.86804">
        <ele>179.7</ele>
        <time>2013-03-31T11:16:05.000+02:00</time>
      </trkpt>
      <trkpt lat="48.68874" lon="1.86802">
        <ele>177.1</ele>
        <time>2013-03-31T11:16:13.000+02:00</time>
      </trkpt>
      <trkpt lat="48.68883" lon="1.86804">
        <ele>174.9</ele>
        <time>2013-03-31T11:16:20.000+02:00</time>
      </trkpt>
      <trkpt lat="48.6889" lon="1.86814">
        <ele>174.4</ele>
        <time>2013-03-31T11:16:27.000+02:00</time>
      </trkpt>
      <trkpt lat="48.68895" lon="1.86825">
        <ele>175.2</ele>
        <time>2013-03-31T11:16:34.000+02:00</time>
      </trkpt>
      <trkpt lat="48.689" lon="1.86839">
        <ele>175.8</ele>
        <time>2013-03-31T11:16:42.000+02:00</time>
      </trkpt>
      <trkpt lat="48.68906" lon="1.8685">
        <ele>176.1</ele>
        <time>2013-03-31T11:16:49.000+02:00</time>
      </trkpt>
      <trkpt lat="48.68912" lon="1.86862">
        <ele>176</ele>
        <time>2013-03-31T11:16:56.000+02:00</time>
      </trkpt>
      <trkpt lat="48.68921" lon="1.86867">
        <ele>176.3</ele>
        <time>2013-03-31T11:17:03.000+02:00</time>
      </trkpt>
      <trkpt lat="48.68931" lon="1.86868">
        <ele>176.8</ele>
        <time>2013-03-31T11:17:11.000+02:00</time>
      </trkpt>
      <trkpt lat="48.68941" lon="1.86868">
        <ele>175.8</ele>
        <time>2013-03-31T11:17:18.000+02:00</time>
      </trkpt>
      <trkpt lat="48.68951" lon="1.86868">
        <ele>175.6</ele>
        <time>2013-03-31T11:17:25.000+02:00</time>
      </trkpt>
      <trkpt lat="48.68961" lon="1.86868">
        <ele>175.4</ele>
        <time>2013-03-31T11:17:32.000+02:00</time>
      </trkpt>
      <trkpt lat="48.68971" lon="1.86868">
        <ele>175.3</ele>
        <time>2013-03-31T11:17:39.000+02:00</time>
      </trkpt>
      <trkpt lat="48.68981" lon="1.86866">
        <ele>175.2</ele>
        <time>2013-03-31T11:17:45.000+02:00</time>
      </trkpt>
      <trkpt lat="48.68991" lon="1.86866">
        <ele>175.3</ele>
        <time>2013-03-31T11:17:52.000+02:00</time>
      </trkpt>
      <trkpt lat="48.69" lon="1.86866">
        <ele>175.1</ele>
        <time>2013-03-31T11:17:58.000+02:00</time>
      </trkpt>
      <trkpt lat="48.6901" lon="1.86865">
        <ele>174.9</ele>
        <time>2013-03-31T11:18:05.000+02:00</time>
      </trkpt>
      <trkpt lat="48.6902" lon="1.86866">
        <ele>175</ele>
        <time>2013-03-31T11:18:12.000+02:00</time>
      </trkpt>
      <trkpt lat="48.69029" lon="1.86865">
        <ele>175</ele>
        <time>2013-03-31T11:18:19.000+02:00</time>
      </trkpt>
      <trkpt lat="48.69038" lon="1.86865">
        <ele>175.2</ele>
        <time>2013-03-31T11:18:26.000+02:00</time>
      </trkpt>
      <trkpt lat="48.69048" lon="1.86864">
        <ele>175.3</ele>
        <time>2013-03-31T11:18:33.000+02:00</time>
      </trkpt>
      <trkpt lat="48.69058" lon="1.86863">
        <ele>175.3</ele>
        <time>2013-03-31T11:18:40.000+02:00</time>
      </trkpt>
      <trkpt lat="48.69068" lon="1.86864">
        <ele>175</ele>
        <time>2013-03-31T11:18:47.000+02:00</time>
      </trkpt>
      <trkpt lat="48.69078" lon="1.86862">
        <ele>175.1</ele>
        <time>2013-03-31T11:18:54.000+02:00</time>
      </trkpt>
      <trkpt lat="48.69088" lon="1.86862">
        <ele>175.2</ele>
        <time>2013-03-31T11:19:01.000+02:00</time>
      </trkpt>
      <trkpt lat="48.69097" lon="1.86861">
        <ele>174.8</ele>
        <time>2013-03-31T11:19:08.000+02:00</time>
      </trkpt>
      <trkpt lat="48.69106" lon="1.86863">
        <ele>174.6</ele>
        <time>2013-03-31T11:19:14.000+02:00</time>
      </trkpt>
      <trkpt lat="48.69116" lon="1.86862">
        <ele>174.6</ele>
        <time>2013-03-31T11:19:21.000+02:00</time>
      </trkpt>
      <trkpt lat="48.69127" lon="1.86862">
        <ele>174.7</ele>
        <time>2013-03-31T11:19:28.000+02:00</time>
      </trkpt>
      <trkpt lat="48.69137" lon="1.86861">
        <ele>175.5</ele>
        <time>2013-03-31T11:19:35.000+02:00</time>
      </trkpt>
      <trkpt lat="48.69147" lon="1.8686">
        <ele>175.8</ele>
        <time>2013-03-31T11:19:42.000+02:00</time>
      </trkpt>
      <trkpt lat="48.69157" lon="1.8686">
        <ele>175.9</ele>
        <time>2013-03-31T11:19:49.000+02:00</time>
      </trkpt>
      <trkpt lat="48.69166" lon="1.8686">
        <ele>175.7</ele>
        <time>2013-03-31T11:19:55.000+02:00</time>
      </trkpt>
      <trkpt lat="48.69176" lon="1.86858">
        <ele>175.5</ele>
        <time>2013-03-31T11:20:02.000+02:00</time>
      </trkpt>
      <trkpt lat="48.69186" lon="1.86858">
        <ele>175.8</ele>
        <time>2013-03-31T11:20:09.000+02:00</time>
      </trkpt>
      <trkpt lat="48.69197" lon="1.86857">
        <ele>175.8</ele>
        <time>2013-03-31T11:20:16.000+02:00</time>
      </trkpt>
      <trkpt lat="48.69207" lon="1.86857">
        <ele>175.9</ele>
        <time>2013-03-31T11:20:23.000+02:00</time>
      </trkpt>
      <trkpt lat="48.69217" lon="1.86856">
        <ele>175.6</ele>
        <time>2013-03-31T11:20:30.000+02:00</time>
      </trkpt>
      <trkpt lat="48.69226" lon="1.86857">
        <ele>175.2</ele>
        <time>2013-03-31T11:20:36.000+02:00</time>
      </trkpt>
      <trkpt lat="48.69236" lon="1.86855">
        <ele>174.9</ele>
        <time>2013-03-31T11:20:43.000+02:00</time>
      </trkpt>
      <trkpt lat="48.69245" lon="1.86852">
        <ele>176.2</ele>
        <time>2013-03-31T11:20:50.000+02:00</time>
      </trkpt>
      <trkpt lat="48.69252" lon="1.86843">
        <ele>177.6</ele>
        <time>2013-03-31T11:20:57.000+02:00</time>
      </trkpt>
      <trkpt lat="48.69256" lon="1.86831">
        <ele>177</ele>
        <time>2013-03-31T11:21:04.000+02:00</time>
      </trkpt>
      <trkpt lat="48.69259" lon="1.86818">
        <ele>177.5</ele>
        <time>2013-03-31T11:21:11.000+02:00</time>
      </trkpt>
      <trkpt lat="48.69265" lon="1.86805">
        <ele>177.8</ele>
        <time>2013-03-31T11:21:18.000+02:00</time>
      </trkpt>
      <trkpt lat="48.6927" lon="1.86791">
        <ele>177.5</ele>
        <time>2013-03-31T11:21:25.000+02:00</time>
      </trkpt>
      <trkpt lat="48.69274" lon="1.86779">
        <ele>177.4</ele>
        <time>2013-03-31T11:21:31.000+02:00</time>
      </trkpt>
      <trkpt lat="48.69279" lon="1.86767">
        <ele>178.2</ele>
        <time>2013-03-31T11:21:37.000+02:00</time>
      </trkpt>
      <trkpt lat="48.69284" lon="1.86754">
        <ele>178.3</ele>
        <time>2013-03-31T11:21:44.000+02:00</time>
      </trkpt>
      <trkpt lat="48.69287" lon="1.86741">
        <ele>177.4</ele>
        <time>2013-03-31T11:21:50.000+02:00</time>
      </trkpt>
      <trkpt lat="48.69291" lon="1.86729">
        <ele>177.4</ele>
        <time>2013-03-31T11:21:56.000+02:00</time>
      </trkpt>
      <trkpt lat="48.69295" lon="1.86716">
        <ele>178.5</ele>
        <time>2013-03-31T11:22:03.000+02:00</time>
      </trkpt>
      <trkpt lat="48.69299" lon="1.86703">
        <ele>180</ele>
        <time>2013-03-31T11:22:11.000+02:00</time>
      </trkpt>
      <trkpt lat="48.69304" lon="1.8669">
        <ele>178.5</ele>
        <time>2013-03-31T11:22:19.000+02:00</time>
      </trkpt>
      <trkpt lat="48.69308" lon="1.86676">
        <ele>177.8</ele>
        <time>2013-03-31T11:22:26.000+02:00</time>
      </trkpt>
      <trkpt lat="48.6931" lon="1.86663">
        <ele>178</ele>
        <time>2013-03-31T11:22:34.000+02:00</time>
      </trkpt>
      <trkpt lat="48.69315" lon="1.8665">
        <ele>178.9</ele>
        <time>2013-03-31T11:22:41.000+02:00</time>
      </trkpt>
      <trkpt lat="48.69319" lon="1.86636">
        <ele>178.7</ele>
        <time>2013-03-31T11:22:48.000+02:00</time>
      </trkpt>
      <trkpt lat="48.69323" lon="1.86622">
        <ele>178.9</ele>
        <time>2013-03-31T11:22:56.000+02:00</time>
      </trkpt>
      <trkpt lat="48.69327" lon="1.86609">
        <ele>177.6</ele>
        <time>2013-03-31T11:23:03.000+02:00</time>
      </trkpt>
      <trkpt lat="48.69332" lon="1.86598">
        <ele>177.5</ele>
        <time>2013-03-31T11:23:10.000+02:00</time>
      </trkpt>
      <trkpt lat="48.69335" lon="1.86584">
        <ele>178.9</ele>
        <time>2013-03-31T11:23:18.000+02:00</time>
      </trkpt>
      <trkpt lat="48.6934" lon="1.86571">
        <ele>179.9</ele>
        <time>2013-03-31T11:23:26.000+02:00</time>
      </trkpt>
      <trkpt lat="48.69344" lon="1.86558">
        <ele>181.5</ele>
        <time>2013-03-31T11:23:33.000+02:00</time>
      </trkpt>
      <trkpt lat="48.69348" lon="1.86544">
        <ele>180.7</ele>
        <time>2013-03-31T11:23:40.000+02:00</time>
      </trkpt>
      <trkpt lat="48.69353" lon="1.86531">
        <ele>179.6</ele>
        <time>2013-03-31T11:23:47.000+02:00</time>
      </trkpt>
      <trkpt lat="48.69357" lon="1.86518">
        <ele>179.6</ele>
        <time>2013-03-31T11:23:54.000+02:00</time>
      </trkpt>
      <trkpt lat="48.69361" lon="1.86505">
        <ele>178.9</ele>
        <time>2013-03-31T11:24:01.000+02:00</time>
      </trkpt>
      <trkpt lat="48.69366" lon="1.86493">
        <ele>178.5</ele>
        <time>2013-03-31T11:24:08.000+02:00</time>
      </trkpt>
      <trkpt lat="48.6937" lon="1.86479">
        <ele>177.7</ele>
        <time>2013-03-31T11:24:16.000+02:00</time>
      </trkpt>
      <trkpt lat="48.69374" lon="1.86465">
        <ele>176.5</ele>
        <time>2013-03-31T11:24:23.000+02:00</time>
      </trkpt>
      <trkpt lat="48.69378" lon="1.86452">
        <ele>176.2</ele>
        <time>2013-03-31T11:24:30.000+02:00</time>
      </trkpt>
      <trkpt lat="48.69381" lon="1.86438">
        <ele>176.1</ele>
        <time>2013-03-31T11:24:38.000+02:00</time>
      </trkpt>
      <trkpt lat="48.69387" lon="1.86428">
        <ele>175.4</ele>
        <time>2013-03-31T11:24:45.000+02:00</time>
      </trkpt>
      <trkpt lat="48.69396" lon="1.86423">
        <ele>174.4</ele>
        <time>2013-03-31T11:24:52.000+02:00</time>
      </trkpt>
      <trkpt lat="48.69405" lon="1.86426">
        <ele>173.8</ele>
        <time>2013-03-31T11:24:59.000+02:00</time>
      </trkpt>
      <trkpt lat="48.69415" lon="1.86429">
        <ele>174</ele>
        <time>2013-03-31T11:25:06.000+02:00</time>
      </trkpt>
      <trkpt lat="48.69425" lon="1.86432">
        <ele>174.4</ele>
        <time>2013-03-31T11:25:13.000+02:00</time>
      </trkpt>
      <trkpt lat="48.69434" lon="1.86435">
        <ele>174.7</ele>
        <time>2013-03-31T11:25:20.000+02:00</time>
      </trkpt>
      <trkpt lat="48.69444" lon="1.86437">
        <ele>174.8</ele>
        <time>2013-03-31T11:25:27.000+02:00</time>
      </trkpt>
      <trkpt lat="48.69453" lon="1.86441">
        <ele>175.1</ele>
        <time>2013-03-31T11:25:34.000+02:00</time>
      </trkpt>
      <trkpt lat="48.69462" lon="1.86444">
        <ele>175.3</ele>
        <time>2013-03-31T11:25:41.000+02:00</time>
      </trkpt>
      <trkpt lat="48.69471" lon="1.86447">
        <ele>175.5</ele>
        <time>2013-03-31T11:25:48.000+02:00</time>
      </trkpt>
      <trkpt lat="48.6948" lon="1.86451">
        <ele>175.7</ele>
        <time>2013-03-31T11:25:55.000+02:00</time>
      </trkpt>
      <trkpt lat="48.69489" lon="1.86454">
        <ele>175.8</ele>
        <time>2013-03-31T11:26:03.000+02:00</time>
      </trkpt>
      <trkpt lat="48.69491" lon="1.86459">
        <ele>175.4</ele>
        <time>2013-03-31T11:26:57.000+02:00</time>
      </trkpt>
      <trkpt lat="48.695" lon="1.86461">
        <ele>174.6</ele>
        <time>2013-03-31T11:27:08.000+02:00</time>
      </trkpt>
      <trkpt lat="48.69508" lon="1.86464">
        <ele>174.6</ele>
        <time>2013-03-31T11:27:40.000+02:00</time>
      </trkpt>
      <trkpt lat="48.69517" lon="1.86467">
        <ele>176.2</ele>
        <time>2013-03-31T11:27:50.000+02:00</time>
      </trkpt>
      <trkpt lat="48.69527" lon="1.86471">
        <ele>176.7</ele>
        <time>2013-03-31T11:27:58.000+02:00</time>
      </trkpt>
      <trkpt lat="48.69536" lon="1.86474">
        <ele>176.6</ele>
        <time>2013-03-31T11:28:05.000+02:00</time>
      </trkpt>
      <trkpt lat="48.69545" lon="1.86476">
        <ele>176.2</ele>
        <time>2013-03-31T11:28:12.000+02:00</time>
      </trkpt>
      <trkpt lat="48.69554" lon="1.8648">
        <ele>176.3</ele>
        <time>2013-03-31T11:28:19.000+02:00</time>
      </trkpt>
      <trkpt lat="48.69563" lon="1.86483">
        <ele>176.2</ele>
        <time>2013-03-31T11:28:26.000+02:00</time>
      </trkpt>
      <trkpt lat="48.69573" lon="1.86485">
        <ele>175.6</ele>
        <time>2013-03-31T11:28:34.000+02:00</time>
      </trkpt>
      <trkpt lat="48.69582" lon="1.86484">
        <ele>174.6</ele>
        <time>2013-03-31T11:28:41.000+02:00</time>
      </trkpt>
      <trkpt lat="48.69592" lon="1.86481">
        <ele>173.8</ele>
        <time>2013-03-31T11:28:49.000+02:00</time>
      </trkpt>
      <trkpt lat="48.69595" lon="1.86468">
        <ele>175.1</ele>
        <time>2013-03-31T11:28:57.000+02:00</time>
      </trkpt>
      <trkpt lat="48.69598" lon="1.86455">
        <ele>176.4</ele>
        <time>2013-03-31T11:29:06.000+02:00</time>
      </trkpt>
      <trkpt lat="48.69603" lon="1.86442">
        <ele>176</ele>
        <time>2013-03-31T11:29:13.000+02:00</time>
      </trkpt>
      <trkpt lat="48.69606" lon="1.86428">
        <ele>176.5</ele>
        <time>2013-03-31T11:29:20.000+02:00</time>
      </trkpt>
      <trkpt lat="48.69609" lon="1.86413">
        <ele>176.8</ele>
        <time>2013-03-31T11:29:27.000+02:00</time>
      </trkpt>
      <trkpt lat="48.69613" lon="1.86399">
        <ele>177.4</ele>
        <time>2013-03-31T11:29:34.000+02:00</time>
      </trkpt>
      <trkpt lat="48.69617" lon="1.86384">
        <ele>177.1</ele>
        <time>2013-03-31T11:29:41.000+02:00</time>
      </trkpt>
      <trkpt lat="48.6962" lon="1.8637">
        <ele>177.1</ele>
        <time>2013-03-31T11:29:48.000+02:00</time>
      </trkpt>
      <trkpt lat="48.69624" lon="1.86357">
        <ele>176.8</ele>
        <time>2013-03-31T11:29:55.000+02:00</time>
      </trkpt>
      <trkpt lat="48.69629" lon="1.86345">
        <ele>174.4</ele>
        <time>2013-03-31T11:30:01.000+02:00</time>
      </trkpt>
      <trkpt lat="48.69632" lon="1.8633">
        <ele>175.2</ele>
        <time>2013-03-31T11:30:08.000+02:00</time>
      </trkpt>
      <trkpt lat="48.69636" lon="1.86316">
        <ele>173.6</ele>
        <time>2013-03-31T11:30:15.000+02:00</time>
      </trkpt>
      <trkpt lat="48.69639" lon="1.86303">
        <ele>173.3</ele>
        <time>2013-03-31T11:30:21.000+02:00</time>
      </trkpt>
      <trkpt lat="48.69644" lon="1.86289">
        <ele>173.9</ele>
        <time>2013-03-31T11:30:28.000+02:00</time>
      </trkpt>
      <trkpt lat="48.69647" lon="1.86275">
        <ele>174.2</ele>
        <time>2013-03-31T11:30:35.000+02:00</time>
      </trkpt>
      <trkpt lat="48.69649" lon="1.86262">
        <ele>174</ele>
        <time>2013-03-31T11:30:42.000+02:00</time>
      </trkpt>
      <trkpt lat="48.69652" lon="1.86248">
        <ele>173</ele>
        <time>2013-03-31T11:30:49.000+02:00</time>
      </trkpt>
      <trkpt lat="48.69655" lon="1.86233">
        <ele>173.4</ele>
        <time>2013-03-31T11:30:56.000+02:00</time>
      </trkpt>
      <trkpt lat="48.69658" lon="1.86218">
        <ele>172.5</ele>
        <time>2013-03-31T11:31:03.000+02:00</time>
      </trkpt>
      <trkpt lat="48.6966" lon="1.86204">
        <ele>172.6</ele>
        <time>2013-03-31T11:31:10.000+02:00</time>
      </trkpt>
      <trkpt lat="48.69664" lon="1.86189">
        <ele>172.5</ele>
        <time>2013-03-31T11:31:17.000+02:00</time>
      </trkpt>
      <trkpt lat="48.69665" lon="1.86175">
        <ele>173.1</ele>
        <time>2013-03-31T11:31:23.000+02:00</time>
      </trkpt>
      <trkpt lat="48.69666" lon="1.86161">
        <ele>173.4</ele>
        <time>2013-03-31T11:31:30.000+02:00</time>
      </trkpt>
      <trkpt lat="48.69667" lon="1.86146">
        <ele>174.2</ele>
        <time>2013-03-31T11:31:37.000+02:00</time>
      </trkpt>
      <trkpt lat="48.6967" lon="1.86132">
        <ele>175.1</ele>
        <time>2013-03-31T11:31:44.000+02:00</time>
      </trkpt>
      <trkpt lat="48.69673" lon="1.86117">
        <ele>174.8</ele>
        <time>2013-03-31T11:31:51.000+02:00</time>
      </trkpt>
      <trkpt lat="48.69676" lon="1.86105">
        <ele>174.9</ele>
        <time>2013-03-31T11:31:58.000+02:00</time>
      </trkpt>
      <trkpt lat="48.69679" lon="1.86091">
        <ele>174.3</ele>
        <time>2013-03-31T11:32:05.000+02:00</time>
      </trkpt>
      <trkpt lat="48.69683" lon="1.86077">
        <ele>173.9</ele>
        <time>2013-03-31T11:32:12.000+02:00</time>
      </trkpt>
      <trkpt lat="48.69685" lon="1.86062">
        <ele>173.4</ele>
        <time>2013-03-31T11:32:19.000+02:00</time>
      </trkpt>
      <trkpt lat="48.69688" lon="1.86049">
        <ele>172.9</ele>
        <time>2013-03-31T11:32:25.000+02:00</time>
      </trkpt>
      <trkpt lat="48.6969" lon="1.86034">
        <ele>173.2</ele>
        <time>2013-03-31T11:32:32.000+02:00</time>
      </trkpt>
      <trkpt lat="48.69691" lon="1.8602">
        <ele>173.6</ele>
        <time>2013-03-31T11:32:39.000+02:00</time>
      </trkpt>
      <trkpt lat="48.69694" lon="1.86006">
        <ele>173.6</ele>
        <time>2013-03-31T11:32:46.000+02:00</time>
      </trkpt>
      <trkpt lat="48.69696" lon="1.85991">
        <ele>173.5</ele>
        <time>2013-03-31T11:32:53.000+02:00</time>
      </trkpt>
      <trkpt lat="48.69699" lon="1.85976">
        <ele>174.3</ele>
        <time>2013-03-31T11:33:00.000+02:00</time>
      </trkpt>
      <trkpt lat="48.697" lon="1.85961">
        <ele>174.2</ele>
        <time>2013-03-31T11:33:07.000+02:00</time>
      </trkpt>
      <trkpt lat="48.69699" lon="1.85946">
        <ele>174.3</ele>
        <time>2013-03-31T11:33:14.000+02:00</time>
      </trkpt>
      <trkpt lat="48.69698" lon="1.85932">
        <ele>174.1</ele>
        <time>2013-03-31T11:33:21.000+02:00</time>
      </trkpt>
      <trkpt lat="48.69699" lon="1.85918">
        <ele>174.6</ele>
        <time>2013-03-31T11:33:29.000+02:00</time>
      </trkpt>
      <trkpt lat="48.697" lon="1.85903">
        <ele>175.1</ele>
        <time>2013-03-31T11:33:37.000+02:00</time>
      </trkpt>
      <trkpt lat="48.69702" lon="1.85889">
        <ele>176.1</ele>
        <time>2013-03-31T11:33:45.000+02:00</time>
      </trkpt>
      <trkpt lat="48.69705" lon="1.85877">
        <ele>176.6</ele>
        <time>2013-03-31T11:34:17.000+02:00</time>
      </trkpt>
      <trkpt lat="48.69709" lon="1.85866">
        <ele>176.4</ele>
        <time>2013-03-31T11:34:27.000+02:00</time>
      </trkpt>
      <trkpt lat="48.69705" lon="1.85857">
        <ele>178.4</ele>
        <time>2013-03-31T11:34:43.000+02:00</time>
      </trkpt>
      <trkpt lat="48.69698" lon="1.8585">
        <ele>180.7</ele>
        <time>2013-03-31T11:35:03.000+02:00</time>
      </trkpt>
      <trkpt lat="48.69689" lon="1.85844">
        <ele>181.3</ele>
        <time>2013-03-31T11:35:12.000+02:00</time>
      </trkpt>
      <trkpt lat="48.6968" lon="1.85838">
        <ele>181.4</ele>
        <time>2013-03-31T11:35:20.000+02:00</time>
      </trkpt>
      <trkpt lat="48.69671" lon="1.85833">
        <ele>180.9</ele>
        <time>2013-03-31T11:35:28.000+02:00</time>
      </trkpt>
      <trkpt lat="48.69662" lon="1.85827">
        <ele>180.8</ele>
        <time>2013-03-31T11:35:35.000+02:00</time>
      </trkpt>
      <trkpt lat="48.69653" lon="1.85822">
        <ele>180.3</ele>
        <time>2013-03-31T11:35:42.000+02:00</time>
      </trkpt>
      <trkpt lat="48.69644" lon="1.85818">
        <ele>180.4</ele>
        <time>2013-03-31T11:35:49.000+02:00</time>
      </trkpt>
      <trkpt lat="48.69635" lon="1.85812">
        <ele>181.5</ele>
        <time>2013-03-31T11:35:57.000+02:00</time>
      </trkpt>
      <trkpt lat="48.69626" lon="1.85807">
        <ele>182</ele>
        <time>2013-03-31T11:36:04.000+02:00</time>
      </trkpt>
      <trkpt lat="48.69616" lon="1.85802">
        <ele>180.9</ele>
        <time>2013-03-31T11:36:11.000+02:00</time>
      </trkpt>
      <trkpt lat="48.69607" lon="1.85798">
        <ele>180.4</ele>
        <time>2013-03-31T11:36:17.000+02:00</time>
      </trkpt>
      <trkpt lat="48.69598" lon="1.85794">
        <ele>180.7</ele>
        <time>2013-03-31T11:36:24.000+02:00</time>
      </trkpt>
      <trkpt lat="48.69589" lon="1.85789">
        <ele>181.2</ele>
        <time>2013-03-31T11:36:31.000+02:00</time>
      </trkpt>
      <trkpt lat="48.6958" lon="1.85784">
        <ele>181.1</ele>
        <time>2013-03-31T11:36:38.000+02:00</time>
      </trkpt>
      <trkpt lat="48.6957" lon="1.85779">
        <ele>181</ele>
        <time>2013-03-31T11:36:45.000+02:00</time>
      </trkpt>
      <trkpt lat="48.69561" lon="1.85775">
        <ele>180.5</ele>
        <time>2013-03-31T11:36:55.000+02:00</time>
      </trkpt>
      <trkpt lat="48.69552" lon="1.8577">
        <ele>180.7</ele>
        <time>2013-03-31T11:37:03.000+02:00</time>
      </trkpt>
      <trkpt lat="48.69543" lon="1.85766">
        <ele>180.1</ele>
        <time>2013-03-31T11:37:10.000+02:00</time>
      </trkpt>
      <trkpt lat="48.69534" lon="1.85763">
        <ele>180</ele>
        <time>2013-03-31T11:37:16.000+02:00</time>
      </trkpt>
      <trkpt lat="48.69525" lon="1.85758">
        <ele>181.4</ele>
        <time>2013-03-31T11:37:24.000+02:00</time>
      </trkpt>
      <trkpt lat="48.69515" lon="1.85754">
        <ele>182.9</ele>
        <time>2013-03-31T11:37:32.000+02:00</time>
      </trkpt>
      <trkpt lat="48.69505" lon="1.8575">
        <ele>182.1</ele>
        <time>2013-03-31T11:37:40.000+02:00</time>
      </trkpt>
      <trkpt lat="48.69496" lon="1.85745">
        <ele>180.8</ele>
        <time>2013-03-31T11:37:46.000+02:00</time>
      </trkpt>
      <trkpt lat="48.69487" lon="1.85741">
        <ele>181.3</ele>
        <time>2013-03-31T11:37:53.000+02:00</time>
      </trkpt>
      <trkpt lat="48.69477" lon="1.85737">
        <ele>181.6</ele>
        <time>2013-03-31T11:38:01.000+02:00</time>
      </trkpt>
      <trkpt lat="48.69468" lon="1.85731">
        <ele>184.2</ele>
        <time>2013-03-31T11:38:10.000+02:00</time>
      </trkpt>
      <trkpt lat="48.69459" lon="1.85726">
        <ele>194</ele>
        <time>2013-03-31T11:38:20.000+02:00</time>
      </trkpt>
      <trkpt lat="48.69452" lon="1.85718">
        <ele>199.3</ele>
        <time>2013-03-31T11:38:28.000+02:00</time>
      </trkpt>
      <trkpt lat="48.69442" lon="1.85716">
        <ele>195.3</ele>
        <time>2013-03-31T11:38:33.000+02:00</time>
      </trkpt>
      <trkpt lat="48.69432" lon="1.85712">
        <ele>192.9</ele>
        <time>2013-03-31T11:38:39.000+02:00</time>
      </trkpt>
      <trkpt lat="48.69423" lon="1.85709">
        <ele>188.6</ele>
        <time>2013-03-31T11:38:45.000+02:00</time>
      </trkpt>
      <trkpt lat="48.69413" lon="1.85707">
        <ele>185.4</ele>
        <time>2013-03-31T11:38:52.000+02:00</time>
      </trkpt>
      <trkpt lat="48.69404" lon="1.85704">
        <ele>186.9</ele>
        <time>2013-03-31T11:39:02.000+02:00</time>
      </trkpt>
      <trkpt lat="48.69394" lon="1.85701">
        <ele>187.7</ele>
        <time>2013-03-31T11:39:10.000+02:00</time>
      </trkpt>
      <trkpt lat="48.69385" lon="1.85699">
        <ele>187.5</ele>
        <time>2013-03-31T11:39:17.000+02:00</time>
      </trkpt>
      <trkpt lat="48.69376" lon="1.85697">
        <ele>184.7</ele>
        <time>2013-03-31T11:39:25.000+02:00</time>
      </trkpt>
      <trkpt lat="48.69367" lon="1.85695">
        <ele>183</ele>
        <time>2013-03-31T11:39:33.000+02:00</time>
      </trkpt>
      <trkpt lat="48.69358" lon="1.85692">
        <ele>182.5</ele>
        <time>2013-03-31T11:39:40.000+02:00</time>
      </trkpt>
      <trkpt lat="48.69349" lon="1.85689">
        <ele>183.2</ele>
        <time>2013-03-31T11:39:48.000+02:00</time>
      </trkpt>
      <trkpt lat="48.69339" lon="1.85686">
        <ele>183.2</ele>
        <time>2013-03-31T11:39:56.000+02:00</time>
      </trkpt>
      <trkpt lat="48.6933" lon="1.85684">
        <ele>186.7</ele>
        <time>2013-03-31T11:40:07.000+02:00</time>
      </trkpt>
      <trkpt lat="48.69321" lon="1.85682">
        <ele>188.1</ele>
        <time>2013-03-31T11:40:15.000+02:00</time>
      </trkpt>
    </trkseg>
  </trk>
</gpx>